Flight Track Log - Related Links

Times and Time Zones

All times are in EDT time to prevent confusion due to time zone crossing. See the N272AY flight status page for this flight to view local times or setup timezone preferences in your user account.

Time Position Orientation Groundspeed Altitude Reporting Facility
EDT Latitude Longitude Course Direction KTS MPH feet Rate Location/Type
Thu 06:00:13 AM 41.7520 12.2430 204° Southwest 163 188 2,300  Level FlightAware ADS-B
Thu 06:00:28 AM 41.7470 12.2260 248° West 165 190 2,700 1,574 Climbing FlightAware ADS-B
Thu 06:03:00 AM 41.8943 11.8919 301° West  Level Estimated
Thu 06:04:00 AM 41.9852 11.7990 323° Northwest  Level FlightAware Approximate
Thu 06:05:00 AM 42.0429 11.6664 299° West  Level Estimated
Thu 06:05:18 AM 41.8530 11.7140 299° West 360 414 10,300  Level FlightAware ADS-B
Thu 06:06:33 AM 41.9110 11.5620 297° West 375 432 12,600 1,774 Climbing FlightAware ADS-B
Thu 06:07:13 AM 41.9430 11.4790 297° West 386 444 13,700 1,624 Climbing FlightAware ADS-B
Thu 06:07:58 AM 41.9800 11.3810 297° West 398 458 14,900 1,667 Climbing FlightAware ADS-B
Thu 06:08:43 AM 42.0170 11.2810 297° West 403 464 16,200 1,624 Climbing FlightAware ADS-B
Thu 06:09:23 AM 42.0510 11.1900 297° West 407 468 17,200 1,553 Climbing FlightAware ADS-B
Thu 06:10:08 AM 42.0890 11.0870 296° West 413 475 18,400 1,412 Climbing FlightAware ADS-B
Thu 06:10:48 AM 42.1240 10.9940 297° West 421 484 19,200 1,350 Climbing FlightAware ADS-B
Thu 06:11:28 AM 42.1600 10.8970 297° West 428 493 20,200 1,482 Climbing FlightAware ADS-B
Thu 06:12:13 AM 42.2000 10.7880 296° West 432 497 21,300 1,482 Climbing FlightAware ADS-B
Thu 06:12:53 AM 42.2360 10.6910 297° West 430 495 22,300 1,425 Climbing FlightAware ADS-B
Thu 06:13:33 AM 42.2720 10.5960 297° West 429 494 23,200 1,129 Climbing FlightAware ADS-B
Thu 06:14:18 AM 42.3330 10.5110 314° West 429 494 23,900 918 Climbing FlightAware ADS-B
Thu 06:14:58 AM 42.3930 10.4380 318° Northwest 436 502 24,500 800 Climbing FlightAware ADS-B
Thu 06:15:33 AM 42.4400 10.3810 318° Northwest 436 502 24,900 880 Climbing FlightAware ADS-B
Thu 06:16:13 AM 42.5080 10.2980 318° Northwest 446 513 25,600 1,050 Climbing FlightAware ADS-B
Thu 06:16:53 AM 42.5700 10.2230 318° Northwest 447 514 26,300 900 Climbing FlightAware ADS-B
Thu 06:17:33 AM 42.6330 10.1460 318° Northwest 453 521 26,800 675 Climbing FlightAware ADS-B
Thu 06:18:13 AM 42.6960 10.0690 318° Northwest 460 529 27,200 635 Climbing FlightAware ADS-B
Thu 06:18:58 AM 42.7640 9.9850 318° Northwest 463 533 27,700 776 Climbing FlightAware ADS-B
Thu 06:19:38 AM 42.8270 9.9080 318° Northwest 463 533 28,300 706 Climbing FlightAware ADS-B
Thu 06:20:23 AM 42.8990 9.8180 318° Northwest 468 539 28,700 635 Climbing FlightAware ADS-B
Thu 06:21:03 AM 42.9570 9.7250 310° West 472 543 29,200 847 Climbing FlightAware ADS-B
Thu 06:21:48 AM 43.0020 9.6090 298° West 472 543 29,900 988 Climbing FlightAware ADS-B
Thu 06:22:28 AM 43.0400 9.4990 295° West 469 540 30,600 825 Climbing FlightAware ADS-B
Thu 06:23:08 AM 43.0750 9.3950 295° West 468 539 31,000 706 Climbing FlightAware ADS-B
Thu 06:23:53 AM 43.1140 9.2800 295° West 467 537 31,600 847 Climbing FlightAware ADS-B
Thu 06:24:33 AM 43.1530 9.1640 295° West 464 534 32,200 825 Climbing FlightAware ADS-B
Thu 06:25:13 AM 43.1880 9.0600 295° West 460 529 32,700 706 Climbing FlightAware ADS-B
Thu 06:25:58 AM 43.2280 8.9380 294° West 459 528 33,200 635 Climbing FlightAware ADS-B
Thu 06:26:38 AM 43.2560 8.8280 289° West 460 529 33,600 565 Climbing FlightAware ADS-B
Thu 06:27:23 AM 43.2850 8.7160 290° West 460 529 34,000 282 Climbing FlightAware ADS-B
Thu 06:28:03 AM 43.3160 8.5980 290° West 463 533 34,000  Level FlightAware ADS-B
Thu 06:28:43 AM 43.3430 8.4900 289° West 460 529 34,000  Level FlightAware ADS-B
Thu 06:29:28 AM 43.3760 8.3610 289° West 461 531 34,000  Level FlightAware ADS-B
Thu 06:30:08 AM 43.4040 8.2510 289° West 462 532 34,000  Level FlightAware ADS-B
Thu 06:30:53 AM 43.4360 8.1260 289° West 462 532 34,000  Level FlightAware ADS-B
Thu 06:31:33 AM 43.4640 8.0140 289° West 462 532 34,000  Level FlightAware ADS-B
Thu 06:32:13 AM 43.4910 7.9060 289° West 458 527 34,000  Level FlightAware ADS-B
Thu 06:32:58 AM 43.5230 7.7770 289° West 458 527 34,000  Level FlightAware ADS-B
Thu 06:33:38 AM 43.5670 7.6800 302° West 456 525 34,000  Level FlightAware ADS-B
Thu 06:34:18 AM 43.6270 7.5980 315° West 458 527 34,000  Level FlightAware ADS-B
Thu 06:35:03 AM 43.6940 7.5070 316° Northwest 460 529 34,000  Level FlightAware ADS-B
Thu 06:35:43 AM 43.7550 7.4250 316° Northwest 461 531 34,000  Level FlightAware ADS-B
Thu 06:36:28 AM 43.8290 7.3430 321° Northwest 461 531 34,000  Level FlightAware ADS-B
Thu 06:37:08 AM 43.8980 7.2730 324° Northwest 461 531 34,000  Level FlightAware ADS-B
Thu 06:37:48 AM 43.9660 7.2040 324° Northwest 462 532 34,000  Level FlightAware ADS-B
Thu 06:38:33 AM 44.0470 7.1220 324° Northwest 463 533 34,000  Level FlightAware ADS-B
Thu 06:39:13 AM 44.1150 7.0530 324° Northwest 465 535 34,000  Level FlightAware ADS-B
Thu 06:39:53 AM 44.1840 6.9820 324° Northwest 464 534 34,000  Level FlightAware ADS-B
Thu 06:40:38 AM 44.2610 6.9030 324° Northwest 464 534 34,000  Level FlightAware ADS-B
Thu 06:41:18 AM 44.3290 6.8330 324° Northwest 464 534 34,000  Level FlightAware ADS-B
Thu 06:42:03 AM 44.4080 6.7510 323° Northwest 464 534 34,000  Level FlightAware ADS-B
Thu 06:42:43 AM 44.4790 6.6810 325° Northwest 464 534 34,000  Level FlightAware ADS-B
Thu 06:43:23 AM 44.5490 6.6120 325° Northwest 464 534 34,000  Level FlightAware ADS-B
Thu 06:44:08 AM 44.6260 6.5350 325° Northwest 467 537 34,000  Level FlightAware ADS-B
Thu 06:44:48 AM 44.6970 6.4650 325° Northwest 466 536 34,000  Level FlightAware ADS-B
Thu 06:45:28 AM 44.7670 6.3940 324° Northwest 466 536 34,000  Level FlightAware ADS-B
Thu 06:46:13 AM 44.8480 6.3140 325° Northwest 465 535 34,000  Level FlightAware ADS-B
Thu 06:46:53 AM 44.9180 6.2430 324° Northwest 463 533 34,000  Level FlightAware ADS-B
Thu 06:47:38 AM 44.9910 6.1700 325° Northwest 456 525 34,000  Level FlightAware ADS-B
Thu 06:48:18 AM 45.0590 6.1010 324° Northwest 456 525 34,000  Level FlightAware ADS-B
Thu 06:49:03 AM 45.1420 6.0170 324° Northwest 457 526 34,000  Level FlightAware ADS-B
Thu 06:49:43 AM 45.2090 5.9490 324° Northwest 458 527 34,000  Level FlightAware ADS-B
Thu 06:50:28 AM 45.2900 5.8660 324° Northwest 458 527 34,000  Level FlightAware ADS-B
Thu 06:51:08 AM 45.3580 5.7960 324° Northwest 459 528 34,000  Level FlightAware ADS-B
Thu 06:51:48 AM 45.4280 5.7240 324° Northwest 460 529 34,000  Level FlightAware ADS-B
Thu 06:52:28 AM 45.4990 5.6510 324° Northwest 460 529 34,000  Level FlightAware ADS-B
Thu 06:53:13 AM 45.5710 5.5760 324° Northwest 460 529 34,000  Level FlightAware ADS-B
Thu 06:53:53 AM 45.6480 5.4970 324° Northwest 461 531 34,000  Level FlightAware ADS-B
Thu 06:54:28 AM 45.7020 5.4400 324° Northwest 460 529 34,000  Level FlightAware ADS-B
Thu 06:55:18 AM 45.7940 5.3440 324° Northwest 459 528 34,000  Level FlightAware ADS-B
Thu 06:55:53 AM 45.8550 5.2800 324° Northwest 458 527 34,000  Level FlightAware ADS-B
Thu 06:56:38 AM 45.9310 5.2000 324° Northwest 460 529 34,000  Level FlightAware ADS-B
Thu 06:57:28 AM 46.0200 5.1050 323° Northwest 459 528 34,000  Level FlightAware ADS-B
Thu 06:58:08 AM 46.0860 5.0360 324° Northwest 460 529 34,000  Level FlightAware ADS-B
Thu 06:58:48 AM 46.1570 4.9610 324° Northwest 467 537 34,000  Level FlightAware ADS-B
Thu 06:59:33 AM 46.2290 4.8840 324° Northwest 460 529 34,000  Level FlightAware ADS-B
Thu 07:00:23 AM 46.3190 4.7870 323° Northwest 461 531 34,000  Level FlightAware ADS-B
Thu 07:01:13 AM 46.4150 4.6900 325° Northwest 472 543 34,000  Level FlightAware ADS-B
Thu 07:01:53 AM 46.4900 4.6380 334° Northwest 475 547 34,000  Level FlightAware ADS-B
Thu 07:02:58 AM 46.6180 4.5760 342° North 483 556 34,000  Level FlightAware ADS-B
Thu 07:03:43 AM 46.7180 4.5390 346° North 482 555 34,000  Level FlightAware ADS-B
Thu 07:04:28 AM 46.8190 4.5000 345° North 481 554 34,000  Level FlightAware ADS-B
Thu 07:05:08 AM 46.9040 4.4680 346° North 482 555 34,000  Level FlightAware ADS-B
Thu 07:05:53 AM 47.0060 4.4280 345° North 482 555 34,000  Level FlightAware ADS-B
Thu 07:06:28 AM 47.0800 4.3990 345° North 482 555 34,000  Level FlightAware ADS-B
Thu 07:07:13 AM 47.1730 4.3440 338° Northwest 473 544 34,000  Level FlightAware ADS-B
Thu 07:07:53 AM 47.2500 4.2850 333° Northwest 475 547 34,000  Level FlightAware ADS-B
Thu 07:08:38 AM 47.3370 4.2180 332° Northwest 476 548 34,000  Level FlightAware ADS-B
Thu 07:09:23 AM 47.4250 4.1500 332° Northwest 473 544 34,000  Level FlightAware ADS-B
Thu 07:10:03 AM 47.5000 4.0920 332° Northwest 470 541 34,000  Level FlightAware ADS-B
Thu 07:10:43 AM 47.5770 4.0320 332° Northwest 470 541 34,000  Level FlightAware ADS-B
Thu 07:11:28 AM 47.6660 3.9620 332° Northwest 471 542 34,000  Level FlightAware ADS-B
Thu 07:12:08 AM 47.7410 3.9040 333° Northwest 471 542 34,000  Level FlightAware ADS-B
Thu 07:12:53 AM 47.8260 3.8370 332° Northwest 474 545 34,000 212 Level FlightAware ADS-B
Thu 07:13:33 AM 47.9100 3.7700 332° Northwest 476 548 34,300 565 Climbing FlightAware ADS-B
Thu 07:14:18 AM 47.9950 3.7030 332° Northwest 474 545 34,800 776 Climbing FlightAware ADS-B
Thu 07:14:58 AM 48.0710 3.6440 333° Northwest 470 541 35,400 900 Climbing FlightAware ADS-B
Thu 07:15:38 AM 48.1460 3.5830 332° Northwest 463 533 36,000 450 Climbing FlightAware ADS-B
Thu 07:16:18 AM 48.2230 3.5210 332° Northwest 464 534 36,000  Level FlightAware ADS-B
Thu 07:17:03 AM 48.3060 3.4550 332° Northwest 466 536 36,000  Level FlightAware ADS-B
Thu 07:17:48 AM 48.3930 3.3840 332° Northwest 465 535 36,000  Level FlightAware ADS-B
Thu 07:18:23 AM 48.4610 3.3280 331° Northwest 466 536 36,000  Level FlightAware ADS-B
Thu 07:19:08 AM 48.5410 3.2590 330° Northwest 457 526 36,000  Level FlightAware ADS-B
Thu 07:19:53 AM 48.6130 3.1650 319° Northwest 452 520 36,000  Level FlightAware ADS-B
Thu 07:20:33 AM 48.6710 3.0860 318° Northwest 455 524 36,000  Level FlightAware ADS-B
Thu 07:21:13 AM 48.7330 3.0040 319° Northwest 456 525 36,000  Level FlightAware ADS-B
Thu 07:21:58 AM 48.8100 2.9020 319° Northwest 456 525 36,000  Level FlightAware ADS-B
Thu 07:22:38 AM 48.8760 2.8150 319° Northwest 455 524 36,000  Level FlightAware ADS-B
Thu 07:23:23 AM 48.9460 2.7270 320° Northwest 463 533 36,000  Level FlightAware ADS-B
Thu 07:23:38 AM 48.9811 2.6997 333° Northwest 473 544 36,000  Level FlightAware ADS-B
Thu 07:23:58 AM 49.0237 2.6768 341° North 484 557 36,000  Level FlightAware ADS-B
Thu 07:24:30 AM 49.0927 2.6444 343° North 487 560 36,000  Level FlightAware ADS-B
Thu 07:25:23 AM 49.1970 2.5950 343° North 489 563 36,000 -947 Level FlightAware ADS-B
Thu 07:26:05 AM 49.2960 2.5464 343° North 1 1 34,500  Descending FlightAware UK
Thu 07:26:08 AM 49.2980 2.5480 343° North 488 562 36,000  Climbing FlightAware ADS-B
Thu 07:26:23 AM 49.3351 2.5301 343° North 1 1 34,500 -2,308 Descending FlightAware UK
Thu 07:26:47 AM 49.3868 2.5053 343° North 468 539 34,500 3,600 Level FlightAware UK
Thu 07:26:48 AM 49.3860 2.5060 343° North 491 565 36,000  Climbing FlightAware ADS-B
Thu 07:27:29 AM 49.4779 2.4622 343° North 472 543 34,500  Descending FlightAware UK
Thu 07:27:33 AM 49.4820 2.4600 343° North 493 567 36,000 1,837 Climbing FlightAware ADS-B
Thu 07:28:18 AM 49.5800 2.4130 343° North 494 568 36,000 -1,452 Level FlightAware ADS-B
Thu 07:28:35 AM 49.6212 2.3926 343° North 472 543 34,500 -2,571 Descending FlightAware UK
Thu 07:28:53 AM 49.6605 2.3738 343° North 472 543 34,500 3,913 Level FlightAware UK
Thu 07:28:58 AM 49.6670 2.3710 343° North 496 571 36,000  Climbing FlightAware ADS-B
Thu 07:29:23 AM 49.7264 2.3424 343° North 472 543 34,500  Descending FlightAware UK
Thu 07:29:38 AM 49.7530 2.3300 343° North 496 571 36,000 1,500 Climbing FlightAware ADS-B
Thu 07:30:23 AM 49.8500 2.2830 343° North 496 571 36,000  Level FlightAware ADS-B
Thu 07:31:03 AM 49.9400 2.2390 343° North 496 571 36,000 -1,500 Level FlightAware ADS-B
Thu 07:31:23 AM 49.9893 2.2149 343° North 470 541 34,500  Descending FlightAware UK
Thu 07:31:48 AM 50.0380 2.1910 343° North 498 573 36,000  Climbing FlightAware ADS-B
Thu 07:32:17 AM 50.1076 2.1577 343° North 470 541 34,500  Descending FlightAware UK
Thu 07:32:28 AM 50.1260 2.1480 343° North 500 575 36,000 1,765 Climbing FlightAware ADS-B
Thu 07:33:08 AM 50.2100 2.1070 343° North 501 577 36,000 -1,636 Level FlightAware ADS-B
Thu 07:33:23 AM 50.2527 2.0857 343° North 472 543 34,500 -2,308 Descending FlightAware UK
Thu 07:33:47 AM 50.3030 2.0510 336° Northwest 472 543 34,500 3,000 Level FlightAware UK
Thu 07:33:53 AM 50.3120 2.0410 336° Northwest 470 541 36,000 1,957 Climbing FlightAware ADS-B
Thu 07:34:33 AM 50.3700 1.9540 316° Northwest 440 506 36,000 -1,169 Level FlightAware ADS-B
Thu 07:35:10 AM 50.4214 1.8557 316° Northwest 474 545 34,500  Descending FlightAware UK
Thu 07:35:13 AM 50.4200 1.8580 316° Northwest 441 507 36,000  Climbing FlightAware ADS-B
Thu 07:35:28 AM 50.4445 1.8108 316° Northwest 474 545 34,500  Descending FlightAware UK
Thu 07:35:58 AM 50.4790 1.7450 316° Northwest 441 507 36,000  Climbing FlightAware ADS-B
Thu 07:36:16 AM 50.5060 1.6917 316° Northwest 476 548 34,500 -2,500 Descending FlightAware UK
Thu 07:36:34 AM 50.5287 1.6474 309° West 478 550 34,500 4,091 Level FlightAware UK
Thu 07:36:38 AM 50.5300 1.6450 309° West 442 509 36,000  Climbing FlightAware ADS-B
Thu 07:36:58 AM 50.5597 1.5872 309° West 476 548 34,500 -2,368 Descending FlightAware UK
Thu 07:37:16 AM 50.5808 1.5418 306° West 478 550 34,500 3,600 Level FlightAware UK
Thu 07:37:23 AM 50.5860 1.5270 306° West 423 487 36,000  Climbing FlightAware ADS-B
Thu 07:37:46 AM 50.6084 1.4620 306° West 476 548 34,500  Descending FlightAware UK
Thu 07:37:58 AM 50.6150 1.4450 306° West 415 478 36,000  Climbing FlightAware ADS-B
Thu 07:38:16 AM 50.6360 1.3828 306° West 472 543 34,500 -2,500 Descending FlightAware UK
Thu 07:38:34 AM 50.6524 1.3354 299° West 474 545 34,500 4,091 Level FlightAware UK
Thu 07:38:38 AM 50.6520 1.3370 299° West 413 475 36,000  Climbing FlightAware ADS-B
Thu 07:38:58 AM 50.6743 1.2721 299° West 476 548 34,500 -2,368 Descending FlightAware UK
Thu 07:39:16 AM 50.6905 1.2251 299° West 478 550 34,500 3,600 Level FlightAware UK
Thu 07:39:23 AM 50.6950 1.2140 299° West 413 475 36,000  Climbing FlightAware ADS-B
Thu 07:39:52 AM 50.7233 1.1300 299° West 476 548 34,500  Descending FlightAware UK
Thu 07:40:08 AM 50.7350 1.0960 299° West 413 475 36,000  Climbing FlightAware ADS-B
Thu 07:40:25 AM 50.7532 1.0428 298° West 36,000 -2,368 Level FlightAware ADS-B
Thu 07:40:46 AM 50.7718 0.9875 298° West 474 545 34,500  Descending FlightAware UK
Thu 07:40:55 AM 50.7802 0.9638 298° West 410 472 36,000 2,000 Climbing FlightAware ADS-B
Thu 07:41:31 AM 50.8121 0.8698 298° West 409 471 36,000 -1,765 Level FlightAware ADS-B
Thu 07:41:46 AM 50.8255 0.8298 298° West 474 545 34,500  Descending FlightAware UK
Thu 07:42:03 AM 50.8404 0.7861 298° West 409 471 36,000  Climbing FlightAware ADS-B
Thu 07:42:22 AM 50.8576 0.7350 298° West 470 541 34,500  Descending FlightAware UK
Thu 07:42:33 AM 50.8679 0.7048 298° West 411 473 36,000  Climbing FlightAware ADS-B
Thu 07:42:52 AM 50.8844 0.6558 298° West 472 543 34,500  Descending FlightAware UK
Thu 07:43:04 AM 50.8947 0.6250 298° West 413 475 36,000  Climbing FlightAware ADS-B
Thu 07:43:22 AM 50.9113 0.5759 298° West 472 543 34,500  Descending FlightAware UK
Thu 07:43:38 AM 50.9260 0.5317 298° West 416 479 36,000  Climbing FlightAware ADS-B
Thu 07:43:58 AM 50.9437 0.4790 298° West 474 545 34,500  Descending FlightAware UK
Thu 07:44:14 AM 50.9581 0.4355 298° West 419 482 36,000 1,915 Climbing FlightAware ADS-B
Thu 07:44:45 AM 50.9863 0.3510 298° West 418 481 36,000  Level FlightAware ADS-B
Thu 07:45:17 AM 51.0148 0.2649 298° West 418 481 36,000  Level FlightAware ADS-B
Thu 07:45:51 AM 51.0448 0.1744 298° West 417 480 36,000 -1,552 Level FlightAware ADS-B
Thu 07:46:15 AM 51.0672 0.1064 298° West 478 550 34,500  Descending FlightAware UK
Thu 07:46:27 AM 51.0775 0.0750 298° West 414 476 36,000  Climbing FlightAware ADS-B
Thu 07:46:45 AM 51.0936 0.0260 298° West 478 550 34,500  Descending FlightAware UK
Thu 07:47:00 AM 51.1066 -0.0137 298° West 414 476 36,000  Climbing FlightAware ADS-B
Thu 07:47:15 AM 51.1200 -0.0548 298° West 478 550 34,500  Descending FlightAware UK
Thu 07:47:31 AM 51.1336 -0.0962 298° West 413 475 36,000  Climbing FlightAware ADS-B
Thu 07:47:51 AM 51.1517 -0.1518 298° West 476 548 34,500  Descending FlightAware UK
Thu 07:48:02 AM 51.1610 -0.1803 298° West 414 476 36,000  Climbing FlightAware ADS-B
Thu 07:48:27 AM 51.1832 -0.2490 298° West 478 550 34,500  Descending FlightAware UK
Thu 07:48:34 AM 51.1888 -0.2660 298° West 411 473 36,000  Climbing FlightAware ADS-B
Thu 07:48:51 AM 51.2038 -0.3131 298° West 476 548 34,500  Descending FlightAware UK
Thu 07:49:05 AM 51.2153 -0.3479 298° West 411 473 36,000  Climbing FlightAware ADS-B
Thu 07:49:21 AM 51.2297 -0.3926 298° West 472 543 34,500  Descending FlightAware UK
Thu 07:49:35 AM 51.2415 -0.4292 298° West 413 475 36,000  Climbing FlightAware ADS-B
Thu 07:49:51 AM 51.2557 -0.4732 298° West 474 545 34,500  Descending FlightAware UK
Thu 07:50:06 AM 51.2682 -0.5123 298° West 415 478 36,000  Climbing FlightAware ADS-B
Thu 07:50:21 AM 51.2816 -0.5539 298° West 474 545 34,500  Descending FlightAware UK
Thu 07:50:36 AM 51.2950 -0.5962 298° West 413 475 36,000  Climbing FlightAware ADS-B
Thu 07:50:57 AM 51.3129 -0.6518 298° West 470 541 34,500  Descending FlightAware UK
Thu 07:51:07 AM 51.3219 -0.6800 298° West 416 479 36,000 2,250 Climbing FlightAware ADS-B
Thu 07:51:37 AM 51.3481 -0.7627 297° West 419 482 36,000 -1,800 Level FlightAware ADS-B
Thu 07:51:57 AM 51.3651 -0.8165 297° West 476 548 34,500  Descending FlightAware UK
Thu 07:52:08 AM 51.3750 -0.8474 297° West 420 483 36,000 2,143 Climbing FlightAware ADS-B
Thu 07:52:39 AM 51.4017 -0.9319 297° West 421 484 36,000 -1,837 Level FlightAware ADS-B
Thu 07:52:57 AM 51.4176 -0.9825 297° West 476 548 34,500  Descending FlightAware UK
Thu 07:53:09 AM 51.4280 -1.0155 297° West 424 488 36,000  Climbing FlightAware ADS-B
Thu 07:53:27 AM 51.4440 -1.0662 297° West 478 550 34,500  Descending FlightAware UK
Thu 07:53:41 AM 51.4562 -1.1054 297° West 425 489 36,000 3,214 Climbing FlightAware ADS-B
Thu 07:53:55 AM 51.4688 -1.1463 296° West 424 488 36,000  Level FlightAware ADS-B
Thu 07:54:13 AM 51.4817 -1.1958 293° West 418 481 36,000  Level FlightAware ADS-B
Thu 07:54:29 AM 51.4913 -1.2427 288° West 413 475 36,000 -2,813 Level FlightAware ADS-B
Thu 07:54:45 AM 51.4986 -1.2905 288° West 480 552 34,500  Descending FlightAware UK
Thu 07:55:00 AM 51.5052 -1.3336 288° West 410 472 36,000  Climbing FlightAware ADS-B
Thu 07:55:20 AM 51.5144 -1.3951 288° West 482 555 34,500  Descending FlightAware UK
Thu 07:55:30 AM 51.5188 -1.4237 288° West 410 472 36,000  Climbing FlightAware ADS-B
Thu 07:55:50 AM 51.5277 -1.4836 288° West 482 555 34,500  Descending FlightAware UK
Thu 07:56:02 AM 51.5327 -1.5180 288° West 410 472 36,000 2,093 Climbing FlightAware ADS-B
Thu 07:56:33 AM 51.5462 -1.6090 283° West 410 472 36,000 -1,667 Level FlightAware ADS-B
Thu 07:56:56 AM 51.5563 -1.6784 283° West 480 552 34,500  Descending FlightAware UK
Thu 07:57:09 AM 51.5618 -1.7159 283° West 413 475 36,000  Climbing FlightAware ADS-B
Thu 07:57:32 AM 51.5718 -1.7855 283° West 480 552 34,500  Descending FlightAware UK
Thu 07:57:42 AM 51.5759 -1.8134 283° West 415 478 36,000 2,250 Climbing FlightAware ADS-B
Thu 07:58:12 AM 51.5891 -1.9048 283° West 416 479 36,000  Level FlightAware ADS-B
Thu 07:58:39 AM 51.6009 -1.9866 283° West 417 480 36,000 -2,045 Level FlightAware ADS-B
Thu 07:58:56 AM 51.6082 -2.0370 283° West 484 557 34,500  Descending FlightAware UK
Thu 07:59:10 AM 51.6140 -2.0782 283° West 417 480 36,000  Climbing FlightAware ADS-B
Thu 07:59:26 AM 51.6209 -2.1270 283° West 482 555 34,500  Descending FlightAware UK
Thu 07:59:47 AM 51.6299 -2.1901 283° West 414 476 36,000  Climbing FlightAware ADS-B
Thu 08:00:08 AM 51.6388 -2.2533 283° West 480 552 34,500  Descending FlightAware UK
Thu 08:00:19 AM 51.6435 -2.2872 283° West 414 476 36,000 2,093 Climbing FlightAware ADS-B
Thu 08:00:51 AM 51.6567 -2.3818 283° West 418 481 36,000 -1,636 Level FlightAware ADS-B
Thu 08:01:14 AM 51.6664 -2.4511 283° West 484 557 34,500  Descending FlightAware UK
Thu 08:01:22 AM 51.6699 -2.4757 283° West 419 482 36,000  Climbing FlightAware ADS-B
Thu 08:01:38 AM 51.6765 -2.5239 283° West 482 555 34,500  Descending FlightAware UK
Thu 08:01:53 AM 51.6828 -2.5691 283° West 419 482 36,000  Climbing FlightAware ADS-B
Thu 08:02:08 AM 51.6892 -2.6152 283° West 482 555 34,500  Descending FlightAware UK
Thu 08:02:27 AM 51.6973 -2.6750 283° West 420 483 36,000  Climbing FlightAware ADS-B
Thu 08:02:43 AM 51.7040 -2.7243 283° West 482 555 34,500  Descending FlightAware UK
Thu 08:02:59 AM 51.7105 -2.7724 283° West 421 484 36,000 1,875 Climbing FlightAware ADS-B
Thu 08:03:31 AM 51.7238 -2.8702 282° West 423 487 36,000 -1,800 Level FlightAware ADS-B
Thu 08:03:49 AM 51.7312 -2.9256 282° West 484 557 34,500  Descending FlightAware UK
Thu 08:04:03 AM 51.7368 -2.9671 282° West 420 483 36,000  Climbing FlightAware ADS-B
Thu 08:04:19 AM 51.7442 -3.0173 282° West 482 555 34,500  Descending FlightAware UK
Thu 08:04:43 AM 51.7586 -3.0877 282° West 424 488 36,000  Climbing FlightAware ADS-B
Thu 08:05:01 AM 51.7696 -3.1433 282° West 478 550 34,500  Descending FlightAware UK
Thu 08:05:13 AM 51.7730 -3.1630 282° West 426 490 36,000  Climbing FlightAware ADS-B
Thu 08:05:31 AM 51.7876 -3.2340 282° West 478 550 34,500  Descending FlightAware UK
Thu 08:05:46 AM 51.7961 -3.2771 282° West 428 493 36,000  Climbing FlightAware ADS-B
Thu 08:06:25 AM 51.8197 -3.3975 282° West 482 555 34,500  Descending FlightAware UK
Thu 08:06:38 AM 51.8240 -3.4180 282° West 428 493 36,000  Climbing FlightAware ADS-B
Thu 08:06:55 AM 51.8377 -3.4890 282° West 480 552 34,500  Descending FlightAware UK
Thu 08:07:18 AM 51.8500 -3.5500 282° West 427 491 36,000  Climbing FlightAware ADS-B
Thu 08:07:49 AM 51.8699 -3.6535 282° West 474 545 34,500  Descending FlightAware UK
Thu 08:07:58 AM 51.8740 -3.6780 282° West 433 498 36,000  Climbing FlightAware ADS-B
Thu 08:08:19 AM 51.8875 -3.7459 282° West 484 557 34,500 -2,308 Descending FlightAware UK
Thu 08:08:37 AM 51.8984 -3.8023 287° West 482 555 34,500 3,750 Level FlightAware UK
Thu 08:08:43 AM 51.9000 -3.8110 287° West 437 503 36,000 1,957 Climbing FlightAware ADS-B
Thu 08:09:23 AM 51.9240 -3.9360 287° West 438 504 36,000  Level FlightAware ADS-B
Thu 08:09:34 AM 51.9323 -3.9793 287° West 438 504 36,000 -3,462 Level FlightAware ADS-B
Thu 08:09:49 AM 51.9412 -4.0264 287° West 482 555 34,500  Descending FlightAware UK
Thu 08:10:11 AM 51.9541 -4.0941 287° West 437 503 36,000  Climbing FlightAware ADS-B
Thu 08:10:31 AM 51.9662 -4.1577 287° West 482 555 34,500  Descending FlightAware UK
Thu 08:10:48 AM 51.9750 -4.2070 287° West 437 503 36,000  Climbing FlightAware ADS-B
Thu 08:11:07 AM 51.9873 -4.2704 287° West 482 555 34,500 -2,432 Descending FlightAware UK
Thu 08:11:25 AM 51.9978 -4.3268 287° West 484 557 34,500 4,286 Level FlightAware UK
Thu 08:11:28 AM 51.9980 -4.3300 287° West 438 504 36,000 4,286 Climbing FlightAware ADS-B
Thu 08:11:46 AM 52.0106 -4.3945 288° West 439 505 36,000 -2,727 Level FlightAware ADS-B
Thu 08:12:01 AM 52.0189 -4.4398 288° West 484 557 34,500 -1,765 Descending FlightAware UK
Thu 08:12:37 AM 52.0399 -4.5530 287° West 484 557 34,500 1,731 Level FlightAware UK
Thu 08:12:53 AM 52.0480 -4.5960 287° West 437 503 36,000  Climbing FlightAware ADS-B
Thu 08:13:13 AM 52.0609 -4.6660 287° West 482 555 34,500  Descending FlightAware UK
Thu 08:13:38 AM 52.0740 -4.7390 287° West 436 502 36,000  Climbing FlightAware ADS-B
Thu 08:13:55 AM 52.0850 -4.7978 287° West 478 550 34,500 -2,647 Descending FlightAware UK
Thu 08:14:12 AM 52.0951 -4.8537 286° West 482 555 34,500 3,913 Level FlightAware UK
Thu 08:14:18 AM 52.0970 -4.8630 286° West 437 503 36,000  Climbing FlightAware ADS-B
Thu 08:14:37 AM 52.1087 -4.9298 286° West 484 557 34,500  Descending FlightAware UK
Thu 08:15:03 AM 52.1220 -5.0050 286° West 439 505 36,000  Climbing FlightAware ADS-B
Thu 08:15:18 AM 52.1324 -5.0617 286° West 484 557 34,500 -2,727 Descending FlightAware UK
Thu 08:15:36 AM 52.1427 -5.1186 286° West 484 557 34,500 3,600 Level FlightAware UK
Thu 08:15:43 AM 52.1440 -5.1260 286° West 439 505 36,000  Climbing FlightAware ADS-B
Thu 08:16:00 AM 52.1564 -5.1946 286° West 484 557 34,500 -2,571 Descending FlightAware UK
Thu 08:16:18 AM 52.1666 -5.2516 286° West 482 555 34,500 3,913 Level FlightAware UK
Thu 08:16:23 AM 52.1680 -5.2570 286° West 438 504 36,000  Climbing FlightAware ADS-B
Thu 08:16:42 AM 52.1800 -5.3276 286° West 482 555 34,500  Descending FlightAware UK
Thu 08:17:08 AM 52.1960 -5.4020 286° West 444 511 36,000  Climbing FlightAware ADS-B
Thu 08:17:30 AM 52.2182 -5.4737 286° West 488 562 34,500  Descending FlightAware UK
Thu 08:17:48 AM 52.2350 -5.5210 286° West 448 516 36,000  Climbing FlightAware ADS-B
Thu 08:18:06 AM 52.2558 -5.5790 286° West 480 552 34,500 -2,500 Descending FlightAware UK
Thu 08:18:24 AM 52.2742 -5.6316 300° West 480 552 34,500 3,333 Level FlightAware UK
Thu 08:18:33 AM 52.2810 -5.6510 300° West 448 516 36,000  Climbing FlightAware ADS-B
Thu 08:18:54 AM 52.3051 -5.7193 300° West 482 555 34,500  Descending FlightAware UK
Thu 08:19:13 AM 52.3230 -5.7700 300° West 447 514 36,000  Climbing FlightAware ADS-B
Thu 08:19:30 AM 52.3418 -5.8249 300° West 484 557 34,500 -2,571 Descending FlightAware UK
Thu 08:19:48 AM 52.3602 -5.8778 300° West 482 555 34,500 3,913 Level FlightAware UK
Thu 08:19:53 AM 52.3640 -5.8880 300° West 448 516 36,000  Climbing FlightAware ADS-B
Thu 08:20:12 AM 52.3846 -5.9482 300° West 480 552 34,500 -2,432 Descending FlightAware UK
Thu 08:20:30 AM 52.4030 -6.0012 300° West 484 557 34,500 3,462 Level FlightAware UK
Thu 08:20:38 AM 52.4090 -6.0190 300° West 450 518 36,000  Climbing FlightAware ADS-B
Thu 08:20:54 AM 52.4272 -6.0715 300° West 484 557 34,500 -2,647 Descending FlightAware UK
Thu 08:21:12 AM 52.4456 -6.1248 300° West 482 555 34,500 3,750 Level FlightAware UK
Thu 08:21:18 AM 52.4500 -6.1370 300° West 451 519 36,000  Climbing FlightAware ADS-B
Thu 08:21:36 AM 52.4702 -6.1960 300° West 484 557 34,500 -2,500 Descending FlightAware UK
Thu 08:21:54 AM 52.4886 -6.2497 299° West 486 559 34,500 4,091 Level FlightAware UK
Thu 08:21:58 AM 52.4880 -6.2490 299° West 452 520 36,000  Climbing FlightAware ADS-B
Thu 08:22:18 AM 52.5131 -6.3214 299° West 482 555 34,500 -2,368 Descending FlightAware UK
Thu 08:22:36 AM 52.5314 -6.3751 299° West 484 557 34,500 4,500 Level FlightAware UK
Thu 08:22:38 AM 52.5290 -6.3690 299° West 450 518 36,000  Climbing FlightAware ADS-B
Thu 08:22:54 AM 52.5498 -6.4288 299° West 482 555 34,500 -2,647 Descending FlightAware UK
Thu 08:23:12 AM 52.5680 -6.4825 299° West 482 555 34,500 3,103 Level FlightAware UK
Thu 08:23:23 AM 52.5750 -6.5020 299° West 450 518 36,000  Climbing FlightAware ADS-B
Thu 08:23:42 AM 52.5983 -6.5720 299° West 482 555 34,500  Descending FlightAware UK
Thu 08:23:58 AM 52.6120 -6.6110 299° West 453 521 36,000  Climbing FlightAware ADS-B
Thu 08:24:00 AM 52.6165 -6.6258 299° West 484 557 34,500 -4,500 Descending FlightAware UK
Thu 08:24:18 AM 52.6348 -6.6797 299° West 490 564 34,500  Level FlightAware UK
Thu 08:24:36 AM 52.6530 -6.7340 299° West 488 562 34,500 3,600 Level FlightAware UK
Thu 08:24:43 AM 52.6560 -6.7420 299° West 451 519 36,000  Climbing FlightAware ADS-B
Thu 08:25:00 AM 52.6773 -6.8062 299° West 478 550 34,500 -2,571 Descending FlightAware UK
Thu 08:25:18 AM 52.6953 -6.8602 299° West 480 552 34,500 3,214 Level FlightAware UK
Thu 08:25:28 AM 52.7000 -6.8760 299° West 447 514 36,000  Climbing FlightAware ADS-B
Thu 08:25:48 AM 52.7254 -6.9502 299° West 484 557 34,500 -2,368 Descending FlightAware UK
Thu 08:26:06 AM 52.7434 -7.0043 299° West 482 555 34,500 3,600 Level FlightAware UK
Thu 08:26:13 AM 52.7440 -7.0080 299° West 447 514 36,000  Climbing FlightAware ADS-B
Thu 08:26:30 AM 52.7674 -7.0767 299° West 480 552 34,500  Descending FlightAware UK
Thu 08:26:53 AM 52.7850 -7.1290 299° West 447 514 36,000  Climbing FlightAware ADS-B
Thu 08:26:54 AM 52.7915 -7.1489 299° West 482 555 34,500 -4,737 Descending FlightAware UK
Thu 08:27:12 AM 52.8094 -7.2032 299° West 486 559 34,500 2,045 Level FlightAware UK
Thu 08:27:38 AM 52.8310 -7.2690 299° West 446 513 36,000  Climbing FlightAware ADS-B
Thu 08:27:54 AM 52.8509 -7.3295 299° West 484 557 34,500 -2,647 Descending FlightAware UK
Thu 08:28:12 AM 52.8687 -7.3838 299° West 484 557 34,500 3,750 Level FlightAware UK
Thu 08:28:18 AM 52.8690 -7.3850 299° West 449 517 36,000  Climbing FlightAware ADS-B
Thu 08:28:36 AM 52.8923 -7.4562 299° West 482 555 34,500 -2,500 Descending FlightAware UK
Thu 08:28:54 AM 52.9101 -7.5105 298° West 480 552 34,500 4,091 Level FlightAware UK
Thu 08:28:58 AM 52.9100 -7.5100 298° West 449 517 36,000  Climbing FlightAware ADS-B
Thu 08:29:24 AM 52.9396 -7.6011 298° West 484 557 34,500  Descending FlightAware UK
Thu 08:29:38 AM 52.9470 -7.6260 298° West 448 516 36,000  Climbing FlightAware ADS-B
Thu 08:29:54 AM 52.9690 -7.6918 298° West 478 550 34,500 -2,647 Descending FlightAware UK
Thu 08:30:12 AM 52.9865 -7.7462 298° West 480 552 34,500 3,103 Level FlightAware UK
Thu 08:30:23 AM 52.9930 -7.7670 298° West 448 516 36,000  Climbing FlightAware ADS-B
Thu 08:30:42 AM 53.0157 -7.8369 298° West 480 552 34,500 -2,432 Descending FlightAware UK
Thu 08:31:00 AM 53.0332 -7.8915 298° West 480 552 34,500 3,462 Level FlightAware UK
Thu 08:31:08 AM 53.0360 -7.9020 298° West 449 517 36,000  Climbing FlightAware ADS-B
Thu 08:31:24 AM 53.0566 -7.9643 298° West 484 557 34,500 -2,647 Descending FlightAware UK
Thu 08:31:42 AM 53.0741 -8.0191 298° West 482 555 34,500 3,750 Level FlightAware UK
Thu 08:31:48 AM 53.0750 -8.0210 298° West 449 517 36,000  Climbing FlightAware ADS-B
Thu 08:32:06 AM 53.0974 -8.0922 298° West 478 550 34,500 -2,500 Descending FlightAware UK
Thu 08:32:24 AM 53.1149 -8.1471 298° West 486 559 34,500 4,091 Level FlightAware UK
Thu 08:32:28 AM 53.1140 -8.1470 298° West 450 518 36,000  Climbing FlightAware ADS-B
Thu 08:32:48 AM 53.1381 -8.2206 298° West 484 557 34,500  Descending FlightAware UK
Thu 08:33:03 AM 53.1470 -8.2500 298° West 450 518 36,000  Climbing FlightAware ADS-B
Thu 08:33:18 AM 53.1671 -8.3125 298° West 484 557 34,500  Descending FlightAware UK
Thu 08:33:33 AM 53.1770 -8.3440 298° West 449 517 36,000  Climbing FlightAware ADS-B
Thu 08:33:48 AM 53.1960 -8.4043 298° West 484 557 34,500 -2,727 Descending FlightAware UK
Thu 08:34:06 AM 53.2130 -8.4588 298° West 482 555 34,500 3,600 Level FlightAware UK
Thu 08:34:13 AM 53.2150 -8.4670 298° West 446 513 36,000  Climbing FlightAware ADS-B
Thu 08:34:30 AM 53.2360 -8.5321 298° West 484 557 34,500 -2,571 Descending FlightAware UK
Thu 08:34:48 AM 53.2532 -8.5869 298° West 484 557 34,500 3,214 Level FlightAware UK
Thu 08:34:58 AM 53.2570 -8.6000 298° West 441 507 36,000  Climbing FlightAware ADS-B
Thu 08:35:18 AM 53.2816 -8.6782 298° West 480 552 34,500 -2,368 Descending FlightAware UK
Thu 08:35:36 AM 53.2986 -8.7332 297° West 482 555 34,500 4,500 Level FlightAware UK
Thu 08:35:38 AM 53.2970 -8.7280 297° West 442 509 36,000  Climbing FlightAware ADS-B
Thu 08:35:54 AM 53.3155 -8.7880 297° West 482 555 34,500 -2,647 Descending FlightAware UK
Thu 08:36:12 AM 53.3324 -8.8430 297° West 480 552 34,500 3,103 Level FlightAware UK
Thu 08:36:23 AM 53.3390 -8.8650 297° West 441 507 36,000  Climbing FlightAware ADS-B
Thu 08:36:42 AM 53.3606 -8.9344 297° West 484 557 34,500 -2,432 Descending FlightAware UK
Thu 08:37:00 AM 53.3775 -8.9894 297° West 482 555 34,500 4,286 Level FlightAware UK
Thu 08:37:03 AM 53.3770 -8.9890 297° West 440 506 36,000 1,875 Climbing FlightAware ADS-B
Thu 08:37:48 AM 53.4190 -9.1240 298° West 441 507 36,000  Level FlightAware ADS-B
Thu 08:38:28 AM 53.4570 -9.2490 297° West 442 509 36,000  Level FlightAware ADS-B
Thu 08:39:13 AM 53.4980 -9.3870 297° West 442 509 36,000  Level FlightAware ADS-B
Thu 08:39:53 AM 53.5360 -9.5120 297° West 444 511 36,000  Level FlightAware ADS-B
Thu 08:40:33 AM 53.5730 -9.6350 297° West 443 510 36,000  Level FlightAware ADS-B
Thu 08:41:18 AM 53.6140 -9.7730 297° West 443 510 36,000  Level FlightAware ADS-B
Thu 08:41:58 AM 53.6500 -9.8970 296° West 445 512 36,000  Level FlightAware ADS-B
Thu 08:42:43 AM 53.6910 -10.0360 297° West 447 514 36,000  Level FlightAware ADS-B
Thu 08:43:23 AM 53.7280 -10.1630 296° West 451 519 36,000 300 Level FlightAware ADS-B
Thu 08:44:03 AM 53.7660 -10.2930 296° West 449 517 36,400 640 Climbing FlightAware ADS-B
Thu 08:44:38 AM 53.7980 -10.4030 296° West 445 512 36,800 353 Climbing FlightAware ADS-B
Thu 08:45:28 AM 53.8430 -10.5600 296° West 450 518 36,900 133 Climbing FlightAware ADS-B
Thu 08:46:08 AM 53.8790 -10.6860 296° West 454 522 37,000 60 Climbing FlightAware ADS-B
Thu 08:47:08 AM 53.9330 -10.8760 296° West 451 519 37,000  Level FlightAware ADS-B
Thu 08:47:43 AM 53.9530 -10.9460 296° West 452 520 37,000  Level FlightAware ADS-B
Thu 08:48:33 AM 54.0080 -11.1430 295° West 454 522 37,000  Level FlightAware ADS-B
Thu 08:49:13 AM 54.0440 -11.2700 296° West 454 522 37,000  Level FlightAware ADS-B
Thu 08:49:53 AM 54.0790 -11.3960 295° West 452 520 37,000  Level FlightAware ADS-B
Thu 08:50:28 AM 54.1130 -11.5210 295° West 453 521 37,000  Level FlightAware ADS-B
Thu 08:51:18 AM 54.1560 -11.6770 295° West 453 521 37,000  Level FlightAware ADS-B
Thu 08:52:03 AM 54.1950 -11.8200 295° West 453 521 37,000  Level FlightAware ADS-B
Thu 08:52:33 AM 54.2210 -11.9150 295° West 452 520 37,000  Level FlightAware ADS-B
Thu 08:53:53 AM 54.2910 -12.1780 295° West 452 520 37,000  Level FlightAware ADS-B
Thu 08:54:48 AM 54.3370 -12.3510 295° West 447 514 37,000  Level FlightAware ADS-B
Thu 08:55:28 AM 54.3720 -12.4830 295° West 450 518 37,000  Level FlightAware ADS-B
Thu 08:56:03 AM 54.4050 -12.6060 295° West 447 514 37,000  Level FlightAware ADS-B
Thu 08:57:08 AM 54.4600 -12.8160 294° West 446 513 37,000  Level FlightAware ADS-B
Thu 08:58:18 AM 54.5180 -13.0430 294° West 448 516 37,000  Level FlightAware ADS-B
Thu 08:59:13 AM 54.5650 -13.2240 294° West 447 514 37,000  Level FlightAware ADS-B
Thu 08:59:53 AM 54.5980 -13.3550 294° West 448 516 37,000  Level FlightAware ADS-B
Thu 09:00:53 AM 54.6460 -13.5470 293° West 450 518 37,000  Level FlightAware ADS-B
Thu 09:01:48 AM 54.6920 -13.7270 294° West 449 517 37,000  Level FlightAware ADS-B
Thu 09:02:38 AM 54.7320 -13.8870 293° West 449 517 37,000  Level FlightAware ADS-B
Thu 09:03:28 AM 54.7660 -14.0270 293° West 449 517 37,000  Level FlightAware ADS-B
Thu 09:04:03 AM 54.7970 -14.1550 293° West 450 518 37,000  Level FlightAware ADS-B
Thu 09:04:43 AM 54.8250 -14.2680 293° West 450 518 37,000  Level FlightAware ADS-B
Thu 09:05:33 AM 54.8600 -14.4090 293° West 450 518 37,000  Level FlightAware ADS-B
Thu 09:06:13 AM 54.8870 -14.5220 293° West 450 518 37,000  Level FlightAware ADS-B
Thu 09:06:53 AM 54.9150 -14.6360 293° West 450 518 37,000  Level FlightAware ADS-B
Thu 09:07:33 AM 54.9430 -14.7490 293° West 450 518 37,000  Level FlightAware ADS-B
Thu 09:08:13 AM 54.9700 -14.8630 292° West 450 518 37,000  Level FlightAware ADS-B
Thu 09:09:03 AM 55.0050 -15.0050 293° West 450 518 37,000  Level FlightAware ADS-B
Thu 09:09:43 AM 55.0320 -15.1180 293° West 450 518 37,000  Level FlightAware ADS-B
Thu 09:10:23 AM 55.0600 -15.2320 293° West 450 518 37,000  Level FlightAware ADS-B
Thu 09:11:03 AM 55.0880 -15.3460 293° West 450 518 37,000  Level FlightAware ADS-B
Thu 09:11:43 AM 55.1150 -15.4600 293° West 450 518 37,000  Level FlightAware ADS-B
Thu 09:12:33 AM 55.1500 -15.6020 293° West 450 518 37,000  Level FlightAware ADS-B
Thu 09:13:13 AM 55.1780 -15.7160 293° West 450 518 37,000  Level FlightAware ADS-B
Thu 09:15:00 AM 55.1918 -16.0731 274° West  Level Estimated
Thu 09:16:00 AM 55.1991 -16.2735 274° West  Level Estimated
Thu 09:17:00 AM 55.2061 -16.4739 274° West  Level Estimated
Thu 09:18:00 AM 55.2130 -16.6835 273° West  Level Estimated
Thu 09:19:00 AM 55.2196 -16.8931 273° West  Level Estimated
Thu 09:20:00 AM 55.2258 -17.1029 273° West  Level Estimated
Thu 09:21:00 AM 55.2316 -17.3127 273° West  Level Estimated
Thu 09:22:00 AM 55.2371 -17.5225 273° West  Level Estimated
Thu 09:23:00 AM 55.2422 -17.7324 273° West  Level Estimated
Thu 09:24:00 AM 55.2470 -17.9424 272° West  Level Estimated
Thu 09:25:00 AM 55.2514 -18.1524 272° West  Level Estimated
Thu 09:26:00 AM 55.2555 -18.3625 272° West  Level Estimated
Thu 09:27:00 AM 55.2592 -18.5726 272° West  Level Estimated
Thu 09:28:00 AM 55.2625 -18.7827 272° West  Level Estimated
Thu 09:29:00 AM 55.2655 -18.9929 272° West  Level Estimated
Thu 09:30:00 AM 55.2681 -19.2031 271° West  Level Estimated
Thu 09:31:00 AM 55.2703 -19.4133 271° West  Level Estimated
Thu 09:31:58 AM 55.0000 -20.0000 274° West 429 494 37,000  Level ETMS Enhanced Traffic Management System
Thu 09:32:00 AM 55.2722 -19.6235 271° West  Level Estimated
Thu 09:33:00 AM 55.2737 -19.8338 271° West  Level Estimated
Thu 09:34:00 AM 55.2749 -20.0425 271° West  Level Estimated
Thu 09:35:00 AM 55.2757 -20.2512 270° West  Level Estimated
Thu 09:36:00 AM 55.2761 -20.4599 270° West  Level Estimated
Thu 09:37:00 AM 55.2762 -20.6686 270° West  Level Estimated
Thu 09:38:00 AM 55.0511 -21.4553 273° West 429 494 37,000  Level FlightAware Transoceanic
Thu 09:39:00 AM 55.0569 -21.6635 273° West 429 494 37,000  Level FlightAware Transoceanic
Thu 09:40:00 AM 55.0625 -21.8717 273° West 429 494 37,000  Level FlightAware Transoceanic
Thu 09:41:00 AM 55.0676 -22.0800 272° West 429 494 37,000  Level FlightAware Transoceanic
Thu 09:42:00 AM 55.0724 -22.2884 272° West 429 494 37,000  Level FlightAware Transoceanic
Thu 09:43:00 AM 55.0769 -22.4968 272° West 429 494 37,000  Level FlightAware Transoceanic
Thu 09:44:00 AM 55.0810 -22.7052 272° West 429 494 37,000  Level FlightAware Transoceanic
Thu 09:45:00 AM 55.0847 -22.9137 272° West 429 494 37,000  Level FlightAware Transoceanic
Thu 09:46:00 AM 55.0881 -23.1222 272° West 429 494 37,000  Level FlightAware Transoceanic
Thu 09:47:00 AM 55.0912 -23.3308 271° West 429 494 37,000  Level FlightAware Transoceanic
Thu 09:48:00 AM 55.0938 -23.5394 271° West 429 494 37,000  Level FlightAware Transoceanic
Thu 09:49:00 AM 55.0961 -23.7480 271° West 429 494 37,000  Level FlightAware Transoceanic
Thu 09:50:00 AM 55.0981 -23.9566 271° West 429 494 37,000  Level FlightAware Transoceanic
Thu 09:51:00 AM 55.0997 -24.1653 271° West 429 494 37,000  Level FlightAware Transoceanic
Thu 09:52:00 AM 55.1010 -24.3739 271° West 429 494 37,000  Level FlightAware Transoceanic
Thu 09:53:00 AM 55.1018 -24.5826 270° West 429 494 37,000  Level FlightAware Transoceanic
Thu 09:54:00 AM 55.1024 -24.7913 270° West 429 494 37,000  Level FlightAware Transoceanic
Thu 09:55:00 AM 55.1026 -25.0000 270° West 429 494 37,000  Level FlightAware Transoceanic
Thu 09:56:00 AM 55.1024 -25.2087 270° West 429 494 37,000  Level FlightAware Transoceanic
Thu 09:57:00 AM 55.1018 -25.4174 270° West 429 494 37,000  Level FlightAware Transoceanic
Thu 09:58:00 AM 55.1010 -25.6261 269° West 429 494 37,000  Level FlightAware Transoceanic
Thu 09:59:00 AM 55.0997 -25.8347 269° West 429 494 37,000  Level FlightAware Transoceanic
Thu 10:00:00 AM 55.0981 -26.0434 269° West 429 494 37,000  Level FlightAware Transoceanic
Thu 10:01:00 AM 55.0961 -26.2520 269° West 429 494 37,000  Level FlightAware Transoceanic
Thu 10:02:00 AM 55.0938 -26.4606 269° West 429 494 37,000  Level FlightAware Transoceanic
Thu 10:03:00 AM 55.0912 -26.6692 269° West 429 494 37,000  Level FlightAware Transoceanic
Thu 10:04:00 AM 55.0881 -26.8778 268° West 429 494 37,000  Level FlightAware Transoceanic
Thu 10:05:00 AM 55.0847 -27.0863 268° West 429 494 37,000  Level FlightAware Transoceanic
Thu 10:06:00 AM 55.0810 -27.2948 268° West 429 494 37,000  Level FlightAware Transoceanic
Thu 10:07:00 AM 55.0769 -27.5032 268° West 429 494 37,000  Level FlightAware Transoceanic
Thu 10:08:00 AM 55.0724 -27.7116 268° West 429 494 37,000  Level FlightAware Transoceanic
Thu 10:09:00 AM 55.0676 -27.9200 268° West 429 494 37,000  Level FlightAware Transoceanic
Thu 10:10:00 AM 55.0625 -28.1283 267° West 429 494 37,000  Level FlightAware Transoceanic
Thu 10:11:00 AM 55.0569 -28.3365 267° West 429 494 37,000  Level FlightAware Transoceanic
Thu 10:12:00 AM 55.0511 -28.5447 267° West 429 494 37,000  Level FlightAware Transoceanic
Thu 10:13:00 AM 55.0448 -28.7528 267° West 429 494 37,000  Level FlightAware Transoceanic
Thu 10:14:00 AM 55.0382 -28.9608 267° West 429 494 37,000  Level FlightAware Transoceanic
Thu 10:15:00 AM 55.0313 -29.1688 267° West 429 494 37,000  Level FlightAware Transoceanic
Thu 10:16:00 AM 55.0240 -29.3768 266° West 429 494 37,000  Level FlightAware Transoceanic
Thu 10:17:00 AM 55.0164 -29.5846 266° West 429 494 37,000  Level FlightAware Transoceanic
Thu 10:18:00 AM 55.0084 -29.7923 266° West 429 494 37,000  Level FlightAware Transoceanic
Thu 10:19:00 AM 55.0000 -29.9991 266° West  Level FlightAware Approximate
Thu 10:20:00 AM 54.9906 -30.2057 266° West  Level FlightAware Approximate
Thu 10:21:00 AM 55.0083 -30.2050 274° West  Level FlightAware Approximate
Thu 10:22:00 AM 55.0162 -30.4119 274° West  Level FlightAware Approximate
Thu 10:23:00 AM 55.0238 -30.6173 274° West  Level FlightAware Approximate
Thu 10:24:00 AM 55.0310 -30.8229 274° West  Level FlightAware Approximate
Thu 10:25:00 AM 55.0379 -31.0285 273° West  Level FlightAware Approximate
Thu 10:26:00 AM 55.0444 -31.2342 273° West  Level FlightAware Approximate
Thu 10:27:00 AM 55.0506 -31.4400 273° West  Level FlightAware Approximate
Thu 10:28:00 AM 55.0565 -31.6458 273° West  Level FlightAware Approximate
Thu 10:29:00 AM 55.0620 -31.8517 273° West  Level FlightAware Approximate
Thu 10:30:00 AM 55.0671 -32.0576 273° West  Level FlightAware Approximate
Thu 10:31:00 AM 55.0719 -32.2636 272° West  Level FlightAware Approximate
Thu 10:32:00 AM 55.0764 -32.4696 272° West  Level FlightAware Approximate
Thu 10:33:00 AM 55.0804 -32.6757 272° West  Level FlightAware Approximate
Thu 10:34:00 AM 55.0842 -32.8818 272° West  Level FlightAware Approximate
Thu 10:35:00 AM 55.0876 -33.0880 272° West  Level FlightAware Approximate
Thu 10:36:00 AM 55.0907 -33.2942 272° West  Level FlightAware Approximate
Thu 10:37:00 AM 55.0934 -33.5004 271° West  Level FlightAware Approximate
Thu 10:38:00 AM 55.0957 -33.7066 271° West  Level FlightAware Approximate
Thu 10:39:00 AM 55.0977 -33.9129 271° West  Level FlightAware Approximate
Thu 10:40:00 AM 55.0994 -34.1192 271° West  Level FlightAware Approximate
Thu 10:41:00 AM 55.1007 -34.3255 271° West  Level FlightAware Approximate
Thu 10:42:00 AM 55.1017 -34.5318 271° West  Level FlightAware Approximate
Thu 10:43:00 AM 55.1023 -34.7381 270° West  Level FlightAware Approximate
Thu 10:44:00 AM 55.1026 -34.9444 270° West  Level FlightAware Approximate
Thu 10:45:00 AM 55.1025 -35.1508 270° West  Level FlightAware Approximate
Thu 10:46:00 AM 55.1021 -35.3571 270° West  Level FlightAware Approximate
Thu 10:47:00 AM 55.1013 -35.5634 270° West  Level FlightAware Approximate
Thu 10:48:00 AM 55.1002 -35.7697 270° West  Level FlightAware Approximate
Thu 10:49:00 AM 55.0987 -35.9760 269° West  Level FlightAware Approximate
Thu 10:50:00 AM 55.0969 -36.1823 269° West  Level FlightAware Approximate
Thu 10:51:00 AM 55.0947 -36.3885 269° West  Level FlightAware Approximate
Thu 10:52:00 AM 55.0922 -36.5948 269° West  Level FlightAware Approximate
Thu 10:53:00 AM 55.0893 -36.8010 269° West  Level FlightAware Approximate
Thu 10:54:00 AM 55.0861 -37.0071 269° West  Level FlightAware Approximate
Thu 10:55:00 AM 55.0825 -37.2133 268° West  Level FlightAware Approximate
Thu 10:56:00 AM 55.0786 -37.4194 268° West  Level FlightAware Approximate
Thu 10:57:00 AM 55.0743 -37.6255 268° West  Level FlightAware Approximate
Thu 10:58:00 AM 55.0697 -37.8315 268° West  Level FlightAware Approximate
Thu 10:59:00 AM 55.0648 -38.0374 268° West  Level FlightAware Approximate
Thu 11:00:00 AM 55.0595 -38.2433 268° West  Level FlightAware Approximate
Thu 11:01:00 AM 55.0538 -38.4492 267° West  Level FlightAware Approximate
Thu 11:02:00 AM 55.0478 -38.6550 267° West  Level FlightAware Approximate
Thu 11:03:00 AM 55.0415 -38.8607 267° West  Level FlightAware Approximate
Thu 11:04:00 AM 55.0348 -39.0664 267° West  Level FlightAware Approximate
Thu 11:05:00 AM 55.0277 -39.2719 267° West  Level FlightAware Approximate
Thu 11:06:00 AM 55.0204 -39.4775 266° West  Level FlightAware Approximate
Thu 11:07:00 AM 55.0126 -39.6829 266° West  Level FlightAware Approximate
Thu 11:08:00 AM 55.0045 -39.8883 266° West  Level FlightAware Approximate
Thu 11:09:00 AM 54.9946 -40.0933 264° West  Level FlightAware Approximate
Thu 11:10:00 AM 54.9825 -40.2980 264° West  Level FlightAware Approximate
Thu 11:11:00 AM 54.9700 -40.5032 264° West  Level FlightAware Approximate
Thu 11:12:00 AM 54.9571 -40.7084 264° West  Level FlightAware Approximate
Thu 11:13:00 AM 54.9440 -40.9133 264° West  Level FlightAware Approximate
Thu 11:14:00 AM 54.9304 -41.1182 264° West  Level FlightAware Approximate
Thu 11:15:00 AM 54.9165 -41.3229 263° West  Level FlightAware Approximate
Thu 11:16:00 AM 54.9023 -41.5275 263° West  Level FlightAware Approximate
Thu 11:17:00 AM 54.8878 -41.7319 263° West  Level FlightAware Approximate
Thu 11:18:00 AM 54.8728 -41.9362 263° West  Level FlightAware Approximate
Thu 11:19:00 AM 54.8576 -42.1403 263° West  Level FlightAware Approximate
Thu 11:20:00 AM 54.8420 -42.3443 263° West  Level FlightAware Approximate
Thu 11:21:00 AM 54.8261 -42.5481 262° West  Level FlightAware Approximate
Thu 11:22:00 AM 54.8098 -42.7518 262° West  Level FlightAware Approximate
Thu 11:23:00 AM 54.7932 -42.9552 262° West  Level FlightAware Approximate
Thu 11:24:00 AM 54.7762 -43.1586 262° West  Level FlightAware Approximate
Thu 11:25:00 AM 54.7589 -43.3617 262° West  Level FlightAware Approximate
Thu 11:26:00 AM 54.7413 -43.5647 262° West  Level FlightAware Approximate
Thu 11:27:00 AM 54.7233 -43.7675 261° West  Level FlightAware Approximate
Thu 11:28:00 AM 54.7050 -43.9701 261° West  Level FlightAware Approximate
Thu 11:29:00 AM 54.6864 -44.1725 261° West  Level FlightAware Approximate
Thu 11:30:00 AM 54.6674 -44.3747 261° West  Level FlightAware Approximate
Thu 11:31:00 AM 54.6480 -44.5768 261° West  Level FlightAware Approximate
Thu 11:32:00 AM 54.6284 -44.7786 261° West  Level FlightAware Approximate
Thu 11:33:00 AM 54.6084 -44.9803 260° West  Level FlightAware Approximate
Thu 11:34:00 AM 54.5881 -45.1817 260° West  Level FlightAware Approximate
Thu 11:35:00 AM 54.5674 -45.3830 260° West  Level FlightAware Approximate
Thu 11:36:00 AM 54.5464 -45.5840 260° West  Level FlightAware Approximate
Thu 11:37:00 AM 54.5251 -45.7849 260° West  Level FlightAware Approximate
Thu 11:38:00 AM 54.5034 -45.9855 260° West  Level FlightAware Approximate
Thu 11:39:00 AM 54.4814 -46.1859 259° West  Level FlightAware Approximate
Thu 11:40:00 AM 54.4591 -46.3861 259° West  Level FlightAware Approximate
Thu 11:41:00 AM 54.4365 -46.5860 259° West  Level FlightAware Approximate
Thu 11:42:00 AM 54.4135 -46.7858 259° West  Level FlightAware Approximate
Thu 11:43:00 AM 54.3902 -46.9853 259° West  Level FlightAware Approximate
Thu 11:44:00 AM 54.3665 -47.1846 259° West  Level FlightAware Approximate
Thu 11:45:00 AM 54.3429 -47.3838 259° West  Level FlightAware Approximate
Thu 11:46:00 AM 54.3190 -47.5828 258° West  Level FlightAware Approximate
Thu 11:47:00 AM 54.2948 -47.7816 258° West  Level FlightAware Approximate
Thu 11:48:00 AM 54.2702 -47.9801 258° West  Level FlightAware Approximate
Thu 11:49:00 AM 54.2454 -48.1783 258° West  Level FlightAware Approximate
Thu 11:50:00 AM 54.2202 -48.3764 258° West  Level FlightAware Approximate
Thu 11:51:00 AM 54.1946 -48.5742 258° West  Level FlightAware Approximate
Thu 11:52:00 AM 54.1688 -48.7717 257° West  Level FlightAware Approximate
Thu 11:53:00 AM 54.1426 -48.9690 257° West  Level FlightAware Approximate
Thu 11:54:00 AM 54.1161 -49.1660 257° West  Level FlightAware Approximate
Thu 11:55:00 AM 54.0893 -49.3628 257° West  Level FlightAware Approximate
Thu 11:56:00 AM 54.0621 -49.5593 257° West  Level FlightAware Approximate
Thu 11:57:00 AM 54.0347 -49.7556 257° West  Level FlightAware Approximate
Thu 11:58:00 AM 54.0069 -49.9516 257° West  Level FlightAware Approximate
Thu 11:59:00 AM 53.9676 -50.1417 249° West  Level FlightAware Approximate
Thu 12:00:00 PM 53.9243 -50.3291 249° West  Level FlightAware Approximate
Thu 12:01:00 PM 53.8808 -50.5161 249° West  Level FlightAware Approximate
Thu 12:02:00 PM 53.8370 -50.7028 248° West  Level FlightAware Approximate
Thu 12:03:00 PM 53.7929 -50.8890 248° West  Level FlightAware Approximate
Thu 12:04:00 PM 53.7485 -51.0748 248° West  Level FlightAware Approximate
Thu 12:05:00 PM 53.7038 -51.2603 248° West  Level FlightAware Approximate
Thu 12:06:00 PM 53.6589 -51.4453 248° West  Level FlightAware Approximate
Thu 12:07:00 PM 53.6137 -51.6300 248° West  Level FlightAware Approximate
Thu 12:08:00 PM 53.5681 -51.8142 247° West  Level FlightAware Approximate
Thu 12:09:00 PM 53.5223 -51.9981 247° West  Level FlightAware Approximate
Thu 12:10:00 PM 53.4762 -52.1815 247° West  Level FlightAware Approximate
Thu 12:11:00 PM 53.4299 -52.3646 247° West  Level FlightAware Approximate
Thu 12:12:00 PM 53.3832 -52.5472 247° West  Level FlightAware Approximate
Thu 12:13:00 PM 53.3363 -52.7295 247° West  Level FlightAware Approximate
Thu 12:13:31 PM 53.3167 -53.1000 246° West 450 518 37,000  Level Gander Center
Thu 12:14:00 PM 53.2891 -52.9114 247° West  Level FlightAware Approximate
Thu 12:14:31 PM 53.2667 -53.2833 246° West 440 506 37,000  Level Gander Center
Thu 12:15:00 PM 53.2416 -53.0928 246° West  Level FlightAware Approximate
Thu 12:15:31 PM 53.2333 -53.4833 255° West 440 506 37,000  Level Gander Center
Thu 12:16:00 PM 53.1939 -53.2739 246° West  Level FlightAware Approximate
Thu 12:16:31 PM 53.1667 -53.6833 241° Southwest 450 518 37,000  Level Gander Center
Thu 12:17:00 PM 53.1458 -53.4545 246° West  Level FlightAware Approximate
Thu 12:17:31 PM 53.1333 -53.8667 253° West 440 506 37,000  Level Gander Center
Thu 12:18:00 PM 53.0975 -53.6348 246° West  Level FlightAware Approximate
Thu 12:18:31 PM 53.0833 -54.0667 247° West 440 506 37,000  Level Gander Center
Thu 12:19:00 PM 53.0490 -53.8146 246° West  Level FlightAware Approximate
Thu 12:19:31 PM 53.0000 -54.2167 227° Southwest 450 518 37,000  Level Gander Center
Thu 12:20:31 PM 52.9333 -54.4000 239° Southwest 450 518 37,000  Level Gander Center
Thu 12:21:31 PM 52.8667 -54.5667 237° Southwest 450 518 37,000  Level Gander Center
Thu 12:22:31 PM 52.7833 -54.7500 233° Southwest 450 518 37,000  Level Gander Center
Thu 12:23:31 PM 52.7000 -54.9000 228° Southwest 450 518 37,000  Level Gander Center
Thu 12:24:31 PM 52.6333 -55.0833 239° Southwest 450 518 37,000  Level Gander Center
Thu 12:25:31 PM 52.5667 -55.2500 237° Southwest 450 518 37,000  Level Gander Center
Thu 12:26:31 PM 52.4833 -55.4000 228° Southwest 450 518 37,000  Level Gander Center
Thu 12:27:31 PM 52.4000 -55.5833 233° Southwest 450 518 37,000  Level Gander Center
Thu 12:28:31 PM 52.3333 -55.7500 237° Southwest 450 518 37,000  Level Gander Center
Thu 12:29:31 PM 52.2500 -55.9167 231° Southwest 450 518 37,000 400 Level Gander Center
Thu 12:30:31 PM 52.1833 -56.0667 234° Southwest 450 518 37,800 500 Climbing Gander Center
Thu 12:31:31 PM 52.1000 -56.2500 234° Southwest 450 518 38,000 100 Climbing Gander Center
Thu 12:32:31 PM 52.0333 -56.3833 231° Southwest 440 506 38,000  Level Gander Center
Thu 12:33:31 PM 51.9667 -56.5500 237° Southwest 440 506 38,000  Level Gander Center
Thu 12:34:31 PM 51.8833 -56.7000 228° Southwest 440 506 38,000  Level Gander Center
Thu 12:35:31 PM 51.8167 -56.8667 237° Southwest 440 506 38,000  Level Gander Center
Thu 12:36:31 PM 51.7333 -57.0333 231° Southwest 450 518 38,000  Level Gander Center
Thu 12:37:31 PM 51.6500 -57.1833 228° Southwest 440 506 38,000  Level Gander Center
Thu 12:38:31 PM 51.5667 -57.3333 228° Southwest 440 506 38,000  Level Gander Center
Thu 12:39:20 PM 51.5167 -57.4667 239° Southwest 440 506 38,000  Level Gander Center
Thu 12:39:38 PM 51.5000 -57.5167 242° Southwest 440 506 38,000  Level Moncton Center
Thu 12:40:31 PM 51.4333 -57.6333 228° Southwest 440 506 38,000  Level Gander Center
Thu 12:41:31 PM 51.3500 -57.8000 231° Southwest 440 506 38,000  Level Gander Center
Thu 12:42:31 PM 51.2833 -57.9667 237° Southwest 450 518 38,000  Level Gander Center
Thu 12:43:31 PM 51.2000 -58.1000 225° Southwest 460 529 38,000  Level Gander Center
Thu 12:44:31 PM 51.1167 -58.2667 232° Southwest 460 529 38,000  Level Gander Center
Thu 12:45:31 PM 51.0333 -58.4333 232° Southwest 450 518 38,000  Level Gander Center
Thu 12:46:31 PM 50.9500 -58.5667 225° Southwest 450 518 38,000  Level Gander Center
Thu 12:47:31 PM 50.8833 -58.7333 238° Southwest 450 518 38,000  Level Gander Center
Thu 12:48:31 PM 50.8000 -58.9000 232° Southwest 450 518 38,000 -100 Level Gander Center
Thu 12:49:31 PM 50.7167 -59.0333 225° Southwest 450 518 37,800 -600 Descending Gander Center
Thu 12:50:31 PM 50.6333 -59.2000 232° Southwest 440 506 36,800 -1,000 Descending Gander Center
Thu 12:51:31 PM 50.5500 -59.3333 225° Southwest 440 506 35,800 -900 Descending Gander Center
Thu 12:52:31 PM 50.4667 -59.5000 232° Southwest 450 518 35,000 -400 Descending Gander Center
Thu 12:53:31 PM 50.4000 -59.6333 232° Southwest 440 506 35,000  Level Gander Center
Thu 12:54:31 PM 50.3167 -59.7667 226° Southwest 440 506 35,000  Level Gander Center
Thu 12:55:31 PM 50.2333 -59.9167 229° Southwest 440 506 35,000  Level Gander Center
Thu 12:56:31 PM 50.1500 -60.0500 226° Southwest 440 506 35,000  Level Gander Center
Thu 12:57:31 PM 50.0667 -60.1833 226° Southwest 440 506 35,000  Level Gander Center
Thu 12:58:31 PM 49.9667 -60.3500 227° Southwest 440 506 35,000  Level Gander Center
Thu 12:59:31 PM 49.9000 -60.4833 232° Southwest 440 506 35,000  Level Gander Center
Thu 01:00:31 PM 49.8167 -60.6167 226° Southwest 440 506 35,000  Level Gander Center
Thu 01:01:31 PM 49.7167 -60.7667 224° Southwest 440 506 35,000  Level Gander Center
Thu 01:02:31 PM 49.6500 -60.9000 232° Southwest 440 506 35,000  Level Gander Center
Thu 01:03:31 PM 49.5500 -61.0500 224° Southwest 440 506 35,000  Level Gander Center
Thu 01:04:31 PM 49.4833 -61.1833 232° Southwest 440 506 35,000  Level Gander Center
Thu 01:05:31 PM 49.3833 -61.3000 217° Southwest 440 506 35,000  Level Gander Center
Thu 01:06:31 PM 49.3000 -61.4667 233° Southwest 440 506 35,000  Level Gander Center
Thu 01:07:31 PM 49.2167 -61.5833 222° Southwest 440 506 35,000  Level Gander Center
Thu 01:08:38 PM 49.1333 -61.7333 230° Southwest 430 495 35,000  Level Moncton Center
Thu 01:09:38 PM 49.0500 -61.8667 226° Southwest 440 506 35,000  Level Moncton Center
Thu 01:10:31 PM 48.9667 -62.0000 226° Southwest 440 506 35,000  Level Gander Center
Thu 01:11:31 PM 48.8833 -62.1167 223° Southwest 450 518 35,000  Level Gander Center
Thu 01:12:31 PM 48.8000 -62.2667 230° Southwest 450 518 35,000  Level Gander Center
Thu 01:13:31 PM 48.7167 -62.4000 227° Southwest 440 506 35,000  Level Gander Center
Thu 01:14:31 PM 48.6333 -62.5167 223° Southwest 440 506 35,000  Level Gander Center
Thu 01:15:31 PM 48.5333 -62.6667 225° Southwest 440 506 35,000  Level Gander Center
Thu 01:16:31 PM 48.4500 -62.8000 227° Southwest 430 495 35,000  Level Gander Center
Thu 01:17:31 PM 48.3667 -62.9167 223° Southwest 440 506 35,000  Level Gander Center
Thu 01:18:31 PM 48.2833 -63.0667 230° Southwest 450 518 35,000  Level Gander Center
Thu 01:19:31 PM 48.2000 -63.1833 223° Southwest 450 518 35,000  Level Gander Center
Thu 01:20:31 PM 48.1167 -63.3333 230° Southwest 450 518 35,000  Level Gander Center
Thu 01:21:31 PM 48.0333 -63.4500 223° Southwest 450 518 35,000  Level Gander Center
Thu 01:22:31 PM 47.9167 -63.6000 221° Southwest 440 506 35,000  Level Gander Center
Thu 01:23:31 PM 47.8333 -63.7167 223° Southwest 450 518 35,000  Level Gander Center
Thu 01:24:31 PM 47.7500 -63.8333 223° Southwest 440 506 35,000  Level Gander Center
Thu 01:25:31 PM 47.6667 -63.9833 231° Southwest 440 506 35,000  Level Gander Center
Thu 01:26:31 PM 47.5833 -64.1000 223° Southwest 440 506 35,000  Level Gander Center
Thu 01:27:31 PM 47.4833 -64.2167 218° Southwest 440 506 35,000  Level Gander Center
Thu 01:28:31 PM 47.4000 -64.3667 231° Southwest 440 506 35,000  Level Gander Center
Thu 01:29:31 PM 47.3167 -64.4833 224° Southwest 440 506 35,000  Level Gander Center
Thu 01:30:31 PM 47.2333 -64.6000 224° Southwest 440 506 35,000  Level Gander Center
Thu 01:31:31 PM 47.1333 -64.7500 226° Southwest 450 518 35,000  Level Gander Center
Thu 01:32:31 PM 47.0500 -64.8667 224° Southwest 450 518 35,000  Level Gander Center
Thu 01:33:31 PM 46.9667 -65.0000 228° Southwest 440 506 35,000  Level Gander Center
Thu 01:34:38 PM 46.8833 -65.1000 219° Southwest 450 518 35,000  Level Moncton Center
Thu 01:35:38 PM 46.7833 -65.2500 226° Southwest 450 518 35,000  Level Moncton Center
Thu 01:36:38 PM 46.6833 -65.3667 219° Southwest 450 518 35,000  Level Moncton Center
Thu 01:42:18 PM 46.1850 -66.0940 219° Southwest 455 524 35,000  Level FlightAware ADS-B
Thu 01:43:23 PM 46.0810 -66.2330 223° Southwest 456 525 35,000  Level FlightAware ADS-B
Thu 01:44:18 PM 46.0010 -66.3400 223° Southwest 449 517 35,000  Level FlightAware ADS-B
Thu 01:45:28 PM 45.8930 -66.4840 223° Southwest 449 517 35,000  Level FlightAware ADS-B
Thu 01:46:03 PM 45.8380 -66.5570 223° Southwest 448 516 35,000  Level FlightAware ADS-B
Thu 01:46:53 PM 45.7630 -66.6570 223° Southwest 447 514 35,000  Level FlightAware ADS-B
Thu 01:47:48 PM 45.6770 -66.7710 223° Southwest 455 524 35,000  Level FlightAware ADS-B
Thu 01:48:28 PM 45.6140 -66.8530 222° Southwest 456 525 35,000  Level FlightAware ADS-B
Thu 01:49:13 PM 45.5450 -66.9440 223° Southwest 455 524 35,000  Level FlightAware ADS-B
Thu 01:50:23 PM 45.4360 -67.0860 222° Southwest 447 514 35,000  Level FlightAware ADS-B
Thu 01:51:33 PM 45.3290 -67.2250 222° Southwest 453 521 35,000  Level FlightAware ADS-B
Thu 01:52:43 PM 45.2200 -67.3660 222° Southwest 454 522 35,000  Level FlightAware ADS-B
Thu 01:53:18 PM 45.1640 -67.4370 222° Southwest 456 525 35,000 -424 Level FlightAware ADS-B
Thu 01:54:08 PM 45.0870 -67.5360 222° Southwest 458 527 34,400 -857 Descending FlightAware ADS-B
Thu 01:55:03 PM 45.0000 -67.6460 222° Southwest 458 527 33,500 -1,011 Descending FlightAware ADS-B
Thu 01:55:43 PM 44.9360 -67.7280 222° Southwest 459 528 32,800 -988 Descending FlightAware ADS-B
Thu 01:56:28 PM 44.8640 -67.8190 222° Southwest 457 526 32,100 -565 Descending FlightAware ADS-B
Thu 01:57:08 PM 44.8020 -67.8980 222° Southwest 458 527 32,000 -75 Descending FlightAware ADS-B
Thu 01:57:48 PM 44.7370 -67.9800 222° Southwest 458 527 32,000  Level FlightAware ADS-B
Thu 01:58:33 PM 44.6680 -68.0660 222° Southwest 455 524 32,000  Level FlightAware ADS-B
Thu 01:59:13 PM 44.6010 -68.1500 222° Southwest 459 528 32,000  Level FlightAware ADS-B
Thu 01:59:58 PM 44.5290 -68.2390 221° Southwest 460 529 32,000  Level FlightAware ADS-B
Thu 02:00:38 PM 44.4650 -68.3180 221° Southwest 459 528 32,000  Level FlightAware ADS-B
Thu 02:01:18 PM 44.4000 -68.3990 222° Southwest 460 529 32,000  Level FlightAware ADS-B
Thu 02:02:03 PM 44.3240 -68.4920 221° Southwest 466 536 32,000  Level FlightAware ADS-B
Thu 02:02:43 PM 44.2570 -68.5750 222° Southwest 467 537 32,000  Level FlightAware ADS-B
Thu 02:03:23 PM 44.1980 -68.6470 221° Southwest 467 537 32,000  Level FlightAware ADS-B
Thu 02:04:33 PM 44.0830 -68.7890 222° Southwest 470 541 32,000  Level FlightAware ADS-B
Thu 02:05:43 PM 43.9730 -68.9210 221° Southwest 471 542 32,000  Level FlightAware ADS-B
Thu 02:06:28 PM 43.8990 -69.0120 222° Southwest 471 542 32,000  Level FlightAware ADS-B
Thu 02:07:03 PM 43.8390 -69.0830 220° Southwest 470 541 32,000  Level FlightAware ADS-B
Thu 02:07:53 PM 43.7490 -69.1920 221° Southwest 473 544 32,000  Level FlightAware ADS-B
Thu 02:08:43 PM 43.6740 -69.2810 221° Southwest 472 543 32,000  Level FlightAware ADS-B
Thu 02:09:28 PM 43.6010 -69.3680 221° Southwest 471 542 32,000  Level FlightAware ADS-B
Thu 02:11:08 PM 43.4350 -69.5650 221° Southwest 468 539 32,000  Level FlightAware ADS-B
Thu 02:12:13 PM 43.3260 -69.6940 221° Southwest 469 540 32,000  Level FlightAware ADS-B
Thu 02:13:03 PM 43.2400 -69.7950 221° Southwest 467 537 32,000  Level FlightAware ADS-B
Thu 02:13:43 PM 43.1740 -69.8720 220° Southwest 465 535 32,000  Level FlightAware ADS-B
Thu 02:14:28 PM 43.1020 -69.9560 220° Southwest 468 539 32,000  Level FlightAware ADS-B
Thu 02:15:08 PM 43.0340 -70.0350 220° Southwest 467 537 32,000  Level FlightAware ADS-B
Thu 02:15:48 PM 42.9680 -70.1120 220° Southwest 464 534 32,000  Level FlightAware ADS-B
Thu 02:16:33 PM 42.8940 -70.1970 220° Southwest 465 535 32,000  Level FlightAware ADS-B
Thu 02:17:13 PM 42.8340 -70.2660 220° Southwest 462 532 32,000  Level FlightAware ADS-B
Thu 02:17:53 PM 42.7680 -70.3430 221° Southwest 464 534 32,000  Level FlightAware ADS-B
Thu 02:18:38 PM 42.6900 -70.4320 220° Southwest 464 534 32,000  Level FlightAware ADS-B
Thu 02:19:18 PM 42.6240 -70.5060 220° Southwest 465 535 32,000  Level FlightAware ADS-B
Thu 02:20:03 PM 42.5520 -70.5890 220° Southwest 464 534 32,000  Level FlightAware ADS-B
Thu 02:20:43 PM 42.4860 -70.6640 220° Southwest 464 534 32,000  Level FlightAware ADS-B
Thu 02:21:28 PM 42.4130 -70.7470 220° Southwest 462 532 32,000  Level FlightAware ADS-B
Thu 02:22:08 PM 42.3490 -70.8190 220° Southwest 465 535 32,000  Level FlightAware ADS-B
Thu 02:22:58 PM 42.2610 -70.9190 220° Southwest 472 543 32,000  Level FlightAware ADS-B
Thu 02:23:43 PM 42.1860 -71.0060 221° Southwest 477 549 32,000  Level FlightAware ADS-B
Thu 02:24:23 PM 42.1210 -71.0820 221° Southwest 462 532 32,000  Level FlightAware ADS-B
Thu 02:25:08 PM 42.0540 -71.1600 221° Southwest 462 532 32,000  Level FlightAware ADS-B
Thu 02:25:53 PM 41.9800 -71.2450 221° Southwest 464 534 32,000  Level FlightAware ADS-B
Thu 02:26:33 PM 41.9180 -71.3170 221° Southwest 465 535 32,000  Level FlightAware ADS-B
Thu 02:27:18 PM 41.8460 -71.3990 220° Southwest 468 539 32,000  Level FlightAware ADS-B
Thu 02:27:58 PM 41.7750 -71.4810 221° Southwest 465 535 32,000  Level FlightAware ADS-B
Thu 02:28:38 PM 41.7120 -71.5520 220° Southwest 466 536 32,000  Level FlightAware ADS-B
Thu 02:29:23 PM 41.6380 -71.6370 221° Southwest 466 536 32,000  Level FlightAware ADS-B
Thu 02:30:03 PM 41.5720 -71.7110 220° Southwest 466 536 32,000  Level FlightAware ADS-B
Thu 02:30:48 PM 41.5030 -71.7900 221° Southwest 466 536 32,000 -320 Level FlightAware ADS-B
Thu 02:31:18 PM 41.4470 -71.8530 220° Southwest 464 534 31,600 -900 Descending FlightAware ADS-B
Thu 02:32:08 PM 41.3690 -71.9400 220° Southwest 452 520 30,800 -1,011 Descending FlightAware ADS-B
Thu 02:32:53 PM 41.2990 -72.0190 220° Southwest 420 483 30,000 -975 Descending FlightAware ADS-B
Thu 02:33:28 PM 41.2520 -72.0730 221° Southwest 403 464 29,500 -975 Descending FlightAware ADS-B
Thu 02:34:13 PM 41.1880 -72.1440 220° Southwest 391 450 28,700 -706 Descending FlightAware ADS-B
Thu 02:34:53 PM 41.1320 -72.2060 220° Southwest 391 450 28,500 -1,059 Descending FlightAware ADS-B
Thu 02:35:38 PM 41.0650 -72.2800 220° Southwest 378 435 27,200 -1,385 Descending FlightAware ADS-B
Thu 02:36:24 PM 41.0007 -72.3520 220° Southwest 376 433 26,400 -1,026 Descending FlightAware ADS-B
Thu 02:36:54 PM 40.9595 -72.3975 220° Southwest 377 434 25,900 -968 Descending FlightAware ADS-B
Thu 02:37:26 PM 40.9159 -72.4456 220° Southwest 392 451 25,400 -938 Descending FlightAware ADS-B
Thu 02:37:58 PM 40.8696 -72.4968 220° Southwest 398 458 24,900 -952 Descending FlightAware ADS-B
Thu 02:38:29 PM 40.8258 -72.5449 220° Southwest 398 458 24,400 -1,029 Descending FlightAware ADS-B
Thu 02:39:08 PM 40.7714 -72.6047 220° Southwest 396 456 23,700 -1,029 Descending FlightAware ADS-B
Thu 02:39:39 PM 40.7279 -72.6523 220° Southwest 393 452 23,200 -952 Descending FlightAware ADS-B
Thu 02:40:11 PM 40.6837 -72.7007 220° Southwest 392 451 22,700 -1,000 Descending FlightAware ADS-B
Thu 02:41:09 PM 40.6030 -72.7889 220° Southwest 386 444 21,700 -840 Descending FlightAware ADS-B
Thu 02:41:51 PM 40.5455 -72.8515 220° Southwest 383 441 21,300 -519 Descending FlightAware ADS-B
Thu 02:42:30 PM 40.4930 -72.9085 220° Southwest 376 433 21,000 -486 Descending FlightAware ADS-B
Thu 02:43:05 PM 40.4468 -72.9585 219° Southwest 371 427 20,700 -538 Descending FlightAware ADS-B
Thu 02:43:48 PM 40.3930 -73.0170 220° Southwest 368 423 20,300 -545 Descending FlightAware ADS-B
Thu 02:44:11 PM 40.3598 -73.0526 219° Southwest 370 426 20,100 -281 Descending FlightAware ADS-B
Thu 02:44:52 PM 40.3053 -73.1113 219° Southwest 367 422 20,000 -77 Descending FlightAware ADS-B
Thu 02:45:29 PM 40.2572 -73.1631 219° Southwest 369 425 20,000  Level FlightAware ADS-B
Thu 02:46:02 PM 40.2140 -73.2095 219° Southwest 370 426 20,000 -348 Level FlightAware ADS-B
Thu 02:46:38 PM 40.1710 -73.2560 220° Southwest 372 428 19,600 -818 Descending FlightAware ADS-B
Thu 02:46:46 PM 40.1553 -73.2723 218° Southwest 370 426 19,400 -1,050 Descending FlightAware ADS-B
Thu 02:47:18 PM 40.1170 -73.3130 219° Southwest 359 413 18,900 -982 Descending FlightAware ADS-B
Thu 02:47:41 PM 40.0840 -73.3484 219° Southwest 361 415 18,500 -1,080 Descending FlightAware ADS-B
Thu 02:48:08 PM 40.0535 -73.3901 226° Southwest 354 407 18,000 -1,017 Descending FlightAware ADS-B
Thu 02:48:40 PM 40.0185 -73.4404 228° Southwest 346 398 17,500 -938 Descending FlightAware ADS-B
Thu 02:49:12 PM 39.9842 -73.4893 228° Southwest 347 399 17,000 -1,048 Descending FlightAware ADS-B
Thu 02:49:43 PM 39.9515 -73.5358 227° Southwest 345 397 16,400 -1,082 Descending FlightAware ADS-B
Thu 02:50:13 PM 39.9187 -73.5825 228° Southwest 344 396 15,900 -938 Descending FlightAware ADS-B
Thu 02:50:47 PM 39.8824 -73.6340 227° Southwest 345 397 15,400 -938 Descending FlightAware ADS-B
Thu 02:51:17 PM 39.8501 -73.6797 227° Southwest 343 395 14,900 -975 Descending FlightAware ADS-B
Thu 02:52:07 PM 39.7969 -73.7550 227° Southwest 338 389 14,100 -791 Descending FlightAware ADS-B
Thu 02:52:48 PM 39.7536 -73.8162 227° Southwest 336 387 13,700 -308 Descending FlightAware ADS-B
Thu 02:53:25 PM 39.7142 -73.8716 227° Southwest 336 387 13,700  Level FlightAware ADS-B
Thu 02:53:55 PM 39.6826 -73.9160 227° Southwest 336 387 13,700  Level FlightAware ADS-B
Thu 02:54:26 PM 39.6504 -73.9613 227° Southwest 336 387 13,700  Level FlightAware ADS-B
Thu 02:55:03 PM 39.6116 -74.0157 227° Southwest 335 386 13,700  Level FlightAware ADS-B
Thu 02:55:33 PM 39.5800 -74.0598 227° Southwest 333 383 13,700  Level FlightAware ADS-B
Thu 02:56:04 PM 39.5472 -74.1058 227° Southwest 333 383 13,700  Level FlightAware ADS-B
Thu 02:56:20 PM 39.5324 -74.1306 232° Southwest 335 386 13,700  Level FlightAware ADS-B
Thu 02:56:28 PM 39.5276 -74.1457 248° West 335 386 13,700  Level FlightAware ADS-B
Thu 02:56:37 PM 39.5251 -74.1631 259° West 338 389 13,700 -621 Level FlightAware ADS-B
Thu 02:56:57 PM 39.5252 -74.2047 270° West 337 388 13,400 -1,200 Descending FlightAware ADS-B
Thu 02:57:42 PM 39.5269 -74.2946 271° West 335 386 12,400 -1,159 Descending FlightAware ADS-B
Thu 02:58:25 PM 39.5284 -74.3799 271° West 332 382 11,700 -843 Descending FlightAware ADS-B
Thu 02:59:43 PM 39.5310 -74.5280 271° West 302 348 10,700 -759 Descending FlightAware ADS-B
Thu 02:59:52 PM 39.5313 -74.5472 271° West 303 349 10,600 -600 Descending FlightAware ADS-B
Thu 03:00:23 PM 39.5320 -74.5970 271° West 280 322 10,300 -818 Descending FlightAware ADS-B
Thu 03:00:36 PM 39.5325 -74.6211 272° West 278 320 10,000 -1,412 Descending FlightAware ADS-B
Thu 03:00:57 PM 39.5331 -74.6559 271° West 277 319 9,500 -1,167 Descending FlightAware ADS-B
Thu 03:01:12 PM 39.5335 -74.6808 271° West 275 316 9,300 -800 Descending FlightAware ADS-B
Thu 03:01:27 PM 39.5339 -74.7057 271° West 274 315 9,100 -800 Descending FlightAware ADS-B
Thu 03:01:42 PM 39.5343 -74.7302 271° West 274 315 8,900 -545 Descending FlightAware ADS-B
Thu 03:02:00 PM 39.5347 -74.7587 271° West 271 312 8,800 -364 Descending FlightAware ADS-B
Thu 03:02:15 PM 39.5350 -74.7830 271° West 272 313 8,700 -581 Descending FlightAware ADS-B
Thu 03:02:31 PM 39.5355 -74.8088 271° West 271 312 8,500 -581 Descending FlightAware ADS-B
Thu 03:02:46 PM 39.5358 -74.8335 271° West 272 313 8,400 -600 Descending FlightAware ADS-B
Thu 03:03:01 PM 39.5362 -74.8582 271° West 274 315 8,200 -600 Descending FlightAware ADS-B
Thu 03:03:16 PM 39.5366 -74.8829 271° West 271 312 8,100 -400 Descending FlightAware ADS-B
Thu 03:03:31 PM 39.5370 -74.9076 271° West 273 314 8,000 -774 Descending FlightAware ADS-B
Thu 03:03:47 PM 39.5373 -74.9336 271° West 274 315 7,700 -1,071 Descending FlightAware ADS-B
Thu 03:03:59 PM 39.5376 -74.9525 271° West 272 313 7,500 -923 Descending FlightAware ADS-B
Thu 03:04:13 PM 39.5386 -74.9758 273° West 272 313 7,300 -1,000 Descending FlightAware ADS-B
Thu 03:04:29 PM 39.5407 -75.0024 276° West 273 314 7,000 -938 Descending FlightAware ADS-B
Thu 03:04:45 PM 39.5426 -75.0274 276° West 273 314 6,800 -938 Descending FlightAware ADS-B
Thu 03:05:01 PM 39.5446 -75.0535 276° West 272 313 6,500 -977 Descending FlightAware ADS-B
Thu 03:05:28 PM 39.5480 -75.0970 276° West 271 312 6,100 -977 Descending FlightAware ADS-B
Thu 03:05:44 PM 39.5499 -75.1222 276° West 269 310 5,800 -774 Descending FlightAware ADS-B
Thu 03:05:59 PM 39.5519 -75.1472 276° West 272 313 5,700 -200 Descending FlightAware ADS-B
Thu 03:06:14 PM 39.5538 -75.1716 276° West 270 311 5,700  Level FlightAware ADS-B
Thu 03:06:30 PM 39.5557 -75.1968 276° West 269 310 5,700 194 Level FlightAware ADS-B
Thu 03:06:45 PM 39.5576 -75.2212 276° West 270 311 5,800  Climbing FlightAware ADS-B
Thu 03:07:02 PM 39.5597 -75.2486 276° West 268 308 5,700  Descending FlightAware ADS-B
Thu 03:07:16 PM 39.5614 -75.2709 276° West 268 308 5,800  Climbing FlightAware ADS-B
Thu 03:07:20 PM 39.5620 -75.2768 278° West 270 311 5,700 -857 Descending FlightAware ADS-B
Thu 03:07:23 PM 39.5631 -75.2824 284° West 272 313 5,700  Level FlightAware ADS-B
Thu 03:07:27 PM 39.5645 -75.2879 288° West 275 316 5,700  Level FlightAware ADS-B
Thu 03:07:30 PM 39.5662 -75.2927 295° West 277 319 5,700  Level FlightAware ADS-B
Thu 03:07:34 PM 39.5684 -75.2974 301° West 280 322 5,700  Level FlightAware ADS-B
Thu 03:07:41 PM 39.5750 -75.3068 312° West 288 331 5,700 429 Level FlightAware ADS-B
Thu 03:07:48 PM 39.5826 -75.3132 327° Northwest 292 336 5,800 545 Climbing FlightAware ADS-B
Thu 03:07:52 PM 39.5880 -75.3165 335° Northwest 295 339 5,800 -545 Level FlightAware ADS-B
Thu 03:07:59 PM 39.5964 -75.3207 339° North 298 343 5,700 -261 Descending FlightAware ADS-B
Thu 03:08:15 PM 39.6173 -75.3282 345° North 286 329 5,700  Level FlightAware ADS-B
Thu 03:08:21 PM 39.6254 -75.3310 345° North 279 321 5,700  Level FlightAware ADS-B
Thu 03:08:28 PM 39.6339 -75.3342 344° North 273 314 5,700  Level FlightAware ADS-B
Thu 03:08:43 PM 39.6518 -75.3414 343° North 261 300 5,700  Level FlightAware ADS-B
Thu 03:08:59 PM 39.6691 -75.3488 342° North 248 285 5,700  Level FlightAware ADS-B
Thu 03:09:12 PM 39.6832 -75.3549 342° North 235 270 5,700 207 Level FlightAware ADS-B
Thu 03:09:28 PM 39.6997 -75.3621 341° North 232 267 5,800  Climbing FlightAware ADS-B
Thu 03:09:45 PM 39.7161 -75.3696 341° North 221 254 5,700 -286 Descending FlightAware ADS-B
Thu 03:09:49 PM 39.7197 -75.3720 333° Northwest 214 246 5,700  Level FlightAware ADS-B
Thu 03:09:54 PM 39.7237 -75.3756 325° Northwest 206 237 5,700 -750 Level FlightAware ADS-B
Thu 03:09:57 PM 39.7261 -75.3785 317° Northwest 200 230 5,600 -1,333 Descending FlightAware ADS-B
Thu 03:10:03 PM 39.7289 -75.3832 308° West 193 222 5,500 -600 Descending FlightAware ADS-B
Thu 03:10:07 PM 39.7308 -75.3877 299° West 187 215 5,500 -750 Level FlightAware ADS-B
Thu 03:10:11 PM 39.7318 -75.3913 290° West 182 209 5,400 -1,714 Descending FlightAware ADS-B
Thu 03:10:14 PM 39.7324 -75.3949 282° West 178 205 5,300 -857 Descending FlightAware ADS-B
Thu 03:10:18 PM 39.7326 -75.3991 274° West 174 200 5,300 -750 Level FlightAware ADS-B
Thu 03:10:22 PM 39.7323 -75.4028 264° West 171 197 5,200 -1,500 Descending FlightAware ADS-B
Thu 03:10:26 PM 39.7317 -75.4072 260° West 168 193 5,100 -1,200 Descending FlightAware ADS-B
Thu 03:10:32 PM 39.7308 -75.4127 258° West 167 192 5,000 -1,286 Descending FlightAware ADS-B
Thu 03:10:40 PM 39.7292 -75.4210 256° West 167 192 4,800 -571 Descending FlightAware ADS-B
Thu 03:10:53 PM 39.7266 -75.4332 255° West 169 194 4,800 -214 Level FlightAware ADS-B
Thu 03:11:08 PM 39.7234 -75.4483 255° West 167 192 4,700 -222 Descending FlightAware ADS-B
Thu 03:11:20 PM 39.7208 -75.4598 254° West 169 194 4,700  Level FlightAware ADS-B
Thu 03:11:30 PM 39.7186 -75.4696 254° West 169 194 4,700  Level FlightAware ADS-B
Thu 03:11:46 PM 39.7153 -75.4849 254° West 167 192 4,700  Level FlightAware ADS-B
Thu 03:12:02 PM 39.7119 -75.5004 254° West 169 194 4,700  Level FlightAware ADS-B
Thu 03:12:19 PM 39.7084 -75.5165 254° West 168 193 4,700  Level FlightAware ADS-B
Thu 03:12:34 PM 39.7050 -75.5320 254° West 168 193 4,700  Level FlightAware ADS-B
Thu 03:12:50 PM 39.7017 -75.5468 254° West 168 193 4,700  Level FlightAware ADS-B
Thu 03:13:04 PM 39.6986 -75.5610 254° West 169 194 4,700  Level FlightAware ADS-B
Thu 03:13:09 PM 39.6977 -75.5662 257° West 172 198 4,700 -545 Level FlightAware ADS-B
Thu 03:13:15 PM 39.6977 -75.5718 270° West 182 209 4,600 -1,333 Descending FlightAware ADS-B
Thu 03:13:18 PM 39.6982 -75.5755 280° West 186 214 4,500 -1,200 Descending FlightAware ADS-B
Thu 03:13:25 PM 39.7007 -75.5824 295° West 196 226 4,400 -600 Descending FlightAware ADS-B
Thu 03:13:28 PM 39.7025 -75.5855 307° West 200 230 4,400 -750 Level FlightAware ADS-B
Thu 03:13:33 PM 39.7058 -75.5894 318° Northwest 206 237 4,300 -1,333 Descending FlightAware ADS-B
Thu 03:13:37 PM 39.7090 -75.5920 328° Northwest 209 241 4,200 -857 Descending FlightAware ADS-B
Thu 03:13:40 PM 39.7119 -75.5937 336° Northwest 211 243 4,200 -1,000 Level FlightAware ADS-B
Thu 03:13:43 PM 39.7149 -75.5949 343° North 213 245 4,100 -667 Descending FlightAware ADS-B
Thu 03:13:49 PM 39.7208 -75.5966 348° North 213 245 4,100 -500 Level FlightAware ADS-B
Thu 03:13:55 PM 39.7263 -75.5978 350° North 212 244 4,000 -857 Descending FlightAware ADS-B
Thu 03:14:10 PM 39.7408 -75.6002 353° North 209 241 3,800 -571 Descending FlightAware ADS-B
Thu 03:14:16 PM 39.7464 -75.6009 355° North 210 242 3,800  Level FlightAware ADS-B
Thu 03:14:19 PM 39.7500 -75.6009 360° North 212 244 3,800 -750 Level FlightAware ADS-B
Thu 03:14:24 PM 39.7541 -75.6002 North 214 246 3,700 -667 Descending FlightAware ADS-B
Thu 03:14:28 PM 39.7582 -75.5983 20° North 215 247 3,700  Level FlightAware ADS-B
Thu 03:14:33 PM 39.7624 -75.5952 30° Northeast 213 245 3,700 667 Level FlightAware ADS-B
Thu 03:14:37 PM 39.7654 -75.5919 40° Northeast 212 244 3,800 857 Climbing FlightAware ADS-B
Thu 03:14:40 PM 39.7676 -75.5892 43° Northeast 210 242 3,800 -750 Level FlightAware ADS-B
Thu 03:14:45 PM 39.7710 -75.5840 50° Northeast 211 243 3,700 -545 Descending FlightAware ADS-B
Thu 03:14:51 PM 39.7746 -75.5781 52° Northeast 210 242 3,700  Level FlightAware ADS-B
Thu 03:15:07 PM 39.7841 -75.5618 53° Northeast 209 241 3,700 -375 Level FlightAware ADS-B
Thu 03:15:23 PM 39.7929 -75.5464 53° Northeast 209 241 3,500 -750 Descending FlightAware ADS-B
Thu 03:15:39 PM 39.8025 -75.5296 53° Northeast 207 238 3,300 -774 Descending FlightAware ADS-B
Thu 03:15:54 PM 39.8107 -75.5149 54° Northeast 202 232 3,100 -818 Descending FlightAware ADS-B
Thu 03:16:01 PM 39.8137 -75.5081 60° Northeast 197 227 3,000 -545 Descending FlightAware ADS-B
Thu 03:16:05 PM 39.8152 -75.5031 69° East 194 223 3,000 -750 Level FlightAware ADS-B
Thu 03:16:09 PM 39.8161 -75.4990 74° East 191 220 2,900 -1,000 Descending FlightAware ADS-B
Thu 03:16:17 PM 39.8176 -75.4905 77° East 189 217 2,800 -750 Descending FlightAware ADS-B

Login

Don't have an account? Register now (free) for customized features, flight alerts, and more!